Observation data for Romero 11SSW on 07/18/2019      Previous  Date       Current Mesonet Observations  Soil Data  Daily Summary Page  Observations in Plain Language
KBR1 180500Z 13009KT 27/13 A30 RMK A01 T02740132  RH  042%=      5-min Rain = 0
KBR1 180501Z 13009KT 27/13 A30 RMK A01 T02740133  RH  042%=      5-min Rain = 0
KBR1 180502Z 13008KT 27/13 A30 RMK A01 T02740132  RH  042%=      5-min Rain = 0
KBR1 180503Z 13008KT 27/13 A30 RMK A01 T02740133  RH  042%=      5-min Rain = 0
KBR1 180504Z 13007KT 27/13 A30 RMK A01 T02730133  RH  042%=      5-min Rain = 0
KBR1 180505Z 14007KT 27/13 A30 RMK A01 T02720133  RH  042%=      5-min Rain = 0
KBR1 180506Z 14007KT 27/13 A30 RMK A01 T02710132  RH  042%=      5-min Rain = 0
KBR1 180507Z 14007KT 27/13 A30 RMK A01 T02710133  RH  043%=      5-min Rain = 0
KBR1 180508Z 14009KT 27/13 A30 RMK A01 T02700132  RH  042%=      5-min Rain = 0
KBR1 180509Z 15007KT 27/13 A30 RMK A01 T02730132  RH  042%=      5-min Rain = 0
KBR1 180510Z 16008KT 27/13 A30 RMK A01 T02740133  RH  042%=      5-min Rain = 0
KBR1 180511Z 16009KT 28/13 A30 RMK A01 T02750133  RH  042%=      5-min Rain = 0
KBR1 180512Z 15011G17KT 28/13 A30 RMK A01 T02750133  RH  041%=      5-min Rain = 0
KBR1 180513Z 15013G18KT 28/13 A30 RMK A01 T02770134  RH  041%=      5-min Rain = 0
KBR1 180514Z 15013KT 28/13 A30 RMK A01 T02810134  RH  040%=      5-min Rain = 0
KBR1 180515Z 16013KT 28/13 A30 RMK A01 T02840134  RH  040%=      5-min Rain = 0
KBR1 180516Z 16013KT 29/13 A30 RMK A01 T02850134  RH  040%=      5-min Rain = 0
KBR1 180517Z 16012KT 28/13 A30 RMK A01 T02840134  RH  040%=      5-min Rain = 0
KBR1 180518Z 16013KT 29/14 A30 RMK A01 T02850135  RH  040%=      5-min Rain = 0
KBR1 180519Z 16013KT 29/14 A30 RMK A01 T02860135  RH  040%=      5-min Rain = 0
KBR1 180520Z 16012KT 29/14 A2999 RMK A01 T02870136  RH  040%=      5-min Rain = 0
KBR1 180521Z 17012KT 29/14 A2999 RMK A01 T02880137  RH  039%=      5-min Rain = 0
KBR1 180522Z 17011KT 29/14 A2999 RMK A01 T02880136  RH  039%=      5-min Rain = 0
KBR1 180523Z 17012KT 29/14 A2999 RMK A01 T02880136  RH  039%=      5-min Rain = 0
KBR1 180524Z 17012KT 29/14 A2999 RMK A01 T02880136  RH  039%=      5-min Rain = 0
KBR1 180525Z 17013KT 29/14 A2999 RMK A01 T02880136  RH  039%=      5-min Rain = 0
KBR1 180526Z 16012KT 29/14 A2999 RMK A01 T02900136  RH  039%=      5-min Rain = 0
KBR1 180527Z 17011KT 29/14 A2999 RMK A01 T02900136  RH  039%=      5-min Rain = 0
KBR1 180528Z 17012KT 29/14 A2999 RMK A01 T02890136  RH  039%=      5-min Rain = 0
KBR1 180529Z 17012KT 29/14 A2999 RMK A01 T02890137  RH  039%=      5-min Rain = 0
KBR1 180530Z 17012KT 29/14 A2999 RMK A01 T02890137  RH  039%=      5-min Rain = 0
KBR1 180531Z 17012KT 29/14 A2999 RMK A01 T02890137  RH  039%=      5-min Rain = 0
KBR1 180532Z 17012KT 29/14 A2999 RMK A01 T02890137  RH  039%=      5-min Rain = 0
KBR1 180533Z 17012KT 29/14 A2999 RMK A01 T02890137  RH  040%=      5-min Rain = 0
KBR1 180534Z 17011KT 29/14 A2999 RMK A01 T02880138  RH  040%=      5-min Rain = 0
KBR1 180535Z 17011KT 29/14 A2999 RMK A01 T02880138  RH  040%=      5-min Rain = 0
KBR1 180536Z 17012KT 29/14 A2999 RMK A01 T02880138  RH  040%=      5-min Rain = 0
KBR1 180537Z 17011KT 29/14 A2999 RMK A01 T02880138  RH  040%=      5-min Rain = 0
KBR1 180538Z 17012KT 29/14 A2999 RMK A01 T02880139  RH  040%=      5-min Rain = 0
KBR1 180539Z 17012KT 29/14 A2999 RMK A01 T02890140  RH  040%=      5-min Rain = 0
KBR1 180540Z 17012KT 29/14 A2999 RMK A01 T02880140  RH  040%=      5-min Rain = 0
KBR1 180541Z 17011KT 29/14 A2999 RMK A01 T02890140  RH  040%=      5-min Rain = 0
KBR1 180542Z 17011KT 29/14 A2999 RMK A01 T02880140  RH  040%=      5-min Rain = 0
KBR1 180543Z 17010KT 29/14 A2999 RMK A01 T02870139  RH  040%=      5-min Rain = 0
KBR1 180544Z 17010KT 29/14 A2999 RMK A01 T02870139  RH  040%=      5-min Rain = 0
KBR1 180545Z 16011KT 29/14 A2999 RMK A01 T02860139  RH  041%=      5-min Rain = 0
KBR1 180546Z 17011KT 29/14 A2998 RMK A01 T02870140  RH  041%=      5-min Rain = 0
KBR1 180547Z 17011KT 29/14 A2998 RMK A01 T02860140  RH  041%=      5-min Rain = 0
KBR1 180548Z 17012KT 29/14 A2998 RMK A01 T02870141  RH  041%=      5-min Rain = 0
KBR1 180549Z 17012KT 29/14 A2998 RMK A01 T02870142  RH  041%=      5-min Rain = 0
KBR1 180550Z 17011KT 29/14 A2998 RMK A01 T02870142  RH  041%=      5-min Rain = 0
KBR1 180551Z 17012KT 29/14 A2998 RMK A01 T02860141  RH  041%=      5-min Rain = 0
KBR1 180552Z 17012KT 29/14 A2998 RMK A01 T02860141  RH  041%=      5-min Rain = 0
KBR1 180553Z 17011KT 29/14 A2998 RMK A01 T02860141  RH  041%=      5-min Rain = 0
KBR1 180554Z 17012KT 29/14 A2998 RMK A01 T02850142  RH  041%=      5-min Rain = 0
KBR1 180555Z 17011KT 29/14 A2998 RMK A01 T02850142  RH  042%=      5-min Rain = 0
KBR1 180556Z 17011KT 29/14 A2998 RMK A01 T02850142  RH  042%=      5-min Rain = 0
KBR1 180557Z 17011KT 29/14 A2999 RMK A01 T02850143  RH  042%=      5-min Rain = 0
KBR1 180558Z 17009KT 28/14 A2999 RMK A01 T02840142  RH  042%=      5-min Rain = 0
KBR1 180559Z 17011KT 28/14 A2999 RMK A01 T02830142  RH  042%=      5-min Rain = 0
KBR1 180600Z 17011KT 28/14 A2999 RMK A01 T02830142  RH  042%=      5-min Rain = 0
KBR1 180601Z 17011KT 28/14 A2998 RMK A01 T02830143  RH  042%=      5-min Rain = 0
KBR1 180602Z 17011KT 28/14 A2998 RMK A01 T02820143  RH  043%=      5-min Rain = 0
KBR1 180603Z 17011KT 28/14 A2998 RMK A01 T02820143  RH  043%=      5-min Rain = 0
KBR1 180604Z 17011KT 28/14 A2998 RMK A01 T02810143  RH  043%=      5-min Rain = 0
KBR1 180605Z 17012KT 28/14 A2998 RMK A01 T02800143  RH  043%=      5-min Rain = 0
KBR1 180606Z 17011KT 28/14 A2998 RMK A01 T02800143  RH  043%=      5-min Rain = 0
KBR1 180607Z 17012KT 28/14 A2998 RMK A01 T02800144  RH  043%=      5-min Rain = 0
KBR1 180608Z 17011KT 28/14 A2998 RMK A01 T02800144  RH  043%=      5-min Rain = 0
KBR1 180609Z 17012KT 28/14 A2998 RMK A01 T02800144  RH  043%=      5-min Rain = 0
KBR1 180610Z 17012KT 28/14 A2998 RMK A01 T02800144  RH  043%=      5-min Rain = 0
KBR1 180611Z 17013KT 28/14 A2998 RMK A01 T02800144  RH  044%=      5-min Rain = 0
KBR1 180612Z 17011KT 28/15 A2998 RMK A01 T02800145  RH  044%=      5-min Rain = 0
KBR1 180613Z 17012KT 28/15 A2998 RMK A01 T02790145  RH  044%=      5-min Rain = 0
KBR1 180614Z 17011KT 28/15 A2998 RMK A01 T02800146  RH  044%=      5-min Rain = 0
KBR1 180615Z 17013KT 28/15 A2998 RMK A01 T02790145  RH  044%=      5-min Rain = 0
KBR1 180616Z 17012KT 28/15 A2998 RMK A01 T02780145  RH  044%=      5-min Rain = 0
KBR1 180617Z 17012KT 28/15 A2998 RMK A01 T02780145  RH  044%=      5-min Rain = 0
KBR1 180618Z 17013KT 28/15 A2998 RMK A01 T02770146  RH  044%=      5-min Rain = 0
KBR1 180619Z 17013KT 28/15 A2998 RMK A01 T02780146  RH  045%=      5-min Rain = 0
KBR1 180620Z 17012KT 28/15 A2998 RMK A01 T02780146  RH  045%=      5-min Rain = 0
KBR1 180621Z 18012KT 28/15 A2998 RMK A01 T02770146  RH  045%=      5-min Rain = 0
KBR1 180622Z 17012KT 28/15 A2998 RMK A01 T02760146  RH  045%=      5-min Rain = 0
KBR1 180623Z 18011KT 28/15 A2998 RMK A01 T02770147  RH  045%=      5-min Rain = 0
KBR1 180624Z 18010KT 28/15 A2998 RMK A01 T02750146  RH  045%=      5-min Rain = 0
KBR1 180625Z 18010KT 27/15 A2998 RMK A01 T02740146  RH  045%=      5-min Rain = 0
KBR1 180626Z 17011KT 27/15 A2998 RMK A01 T02740146  RH  046%=      5-min Rain = 0
KBR1 180627Z 18010KT 27/15 A2998 RMK A01 T02730146  RH  046%=      5-min Rain = 0
KBR1 180628Z 17009KT 27/15 A2998 RMK A01 T02720146  RH  046%=      5-min Rain = 0
KBR1 180629Z 18010KT 27/15 A2998 RMK A01 T02720147  RH  046%=      5-min Rain = 0
KBR1 180630Z 18010KT 27/15 A2998 RMK A01 T02710147  RH  046%=      5-min Rain = 0
KBR1 180631Z 18009KT 27/15 A2998 RMK A01 T02710147  RH  046%=      5-min Rain = 0
KBR1 180632Z 18010KT 27/15 A2998 RMK A01 T02700147  RH  047%=      5-min Rain = 0
KBR1 180633Z 18010KT 27/15 A2998 RMK A01 T02700147  RH  047%=      5-min Rain = 0
KBR1 180634Z 18010KT 27/15 A2998 RMK A01 T02700147  RH  047%=      5-min Rain = 0
KBR1 180635Z 18010KT 27/15 A2998 RMK A01 T02690147  RH  047%=      5-min Rain = 0
KBR1 180636Z 18009KT 27/15 A2998 RMK A01 T02680147  RH  047%=      5-min Rain = 0
KBR1 180637Z 18009KT 27/15 A2998 RMK A01 T02670147  RH  048%=      5-min Rain = 0
KBR1 180638Z 18009KT 27/15 A2998 RMK A01 T02660147  RH  048%=      5-min Rain = 0
KBR1 180639Z 18009KT 27/15 A2998 RMK A01 T02660147  RH  048%=      5-min Rain = 0
KBR1 180640Z 18009KT 27/15 A2998 RMK A01 T02650147  RH  048%=      5-min Rain = 0
KBR1 180641Z 18010KT 26/15 A2998 RMK A01 T02640147  RH  049%=      5-min Rain = 0
KBR1 180642Z 18009KT 26/15 A2997 RMK A01 T02630147  RH  049%=      5-min Rain = 0
KBR1 180643Z 18009KT 26/15 A2997 RMK A01 T02630147  RH  049%=      5-min Rain = 0
KBR1 180644Z 18009KT 26/15 A2997 RMK A01 T02630148  RH  049%=      5-min Rain = 0
KBR1 180645Z 18009KT 26/15 A2997 RMK A01 T02620147  RH  049%=      5-min Rain = 0
KBR1 180646Z 18009KT 26/15 A2997 RMK A01 T02610147  RH  050%=      5-min Rain = 0
KBR1 180647Z 18009KT 26/15 A2997 RMK A01 T02590147  RH  050%=      5-min Rain = 0
KBR1 180648Z 18009KT 26/15 A2997 RMK A01 T02580147  RH  050%=      5-min Rain = 0
KBR1 180649Z 18009KT 26/15 A2997 RMK A01 T02570147  RH  050%=      5-min Rain = 0
KBR1 180650Z 18009KT 26/15 A2997 RMK A01 T02570146  RH  050%=      5-min Rain = 0
KBR1 180651Z 18009KT 26/15 A2997 RMK A01 T02570146  RH  050%=      5-min Rain = 0
KBR1 180652Z 19011KT 26/15 A2997 RMK A01 T02570146  RH  050%=      5-min Rain = 0
KBR1 180653Z 18010KT 26/15 A2997 RMK A01 T02580147  RH  050%=      5-min Rain = 0
KBR1 180654Z 19010KT 26/15 A2997 RMK A01 T02590147  RH  050%=      5-min Rain = 0
KBR1 180655Z 18010KT 26/15 A2997 RMK A01 T02600147  RH  050%=      5-min Rain = 0
KBR1 180656Z 19009KT 26/15 A2997 RMK A01 T02600148  RH  050%=      5-min Rain = 0
KBR1 180657Z 18011KT 26/15 A2997 RMK A01 T02600148  RH  050%=      5-min Rain = 0
KBR1 180658Z 18011KT 26/15 A2997 RMK A01 T02600148  RH  050%=      5-min Rain = 0
KBR1 180659Z 18011KT 26/15 A2997 RMK A01 T02610148  RH  050%=      5-min Rain = 0
KBR1 180700Z 18011KT 26/15 A2997 RMK A01 T02620149  RH  050%=      5-min Rain = 0
KBR1 180701Z 18012KT 26/15 A2997 RMK A01 T02610148  RH  050%=      5-min Rain = 0
KBR1 180702Z 18012KT 26/15 A2997 RMK A01 T02610148  RH  050%=      5-min Rain = 0
KBR1 180703Z 18012KT 26/15 A2997 RMK A01 T02620149  RH  050%=      5-min Rain = 0
KBR1 180704Z 18012KT 26/15 A2997 RMK A01 T02630149  RH  049%=      5-min Rain = 0
KBR1 180705Z 18011KT 26/15 A2997 RMK A01 T02630149  RH  049%=      5-min Rain = 0
KBR1 180706Z 18011KT 26/15 A2997 RMK A01 T02630149  RH  050%=      5-min Rain = 0
KBR1 180707Z 18011KT 26/15 A2997 RMK A01 T02620149  RH  050%=      5-min Rain = 0
KBR1 180708Z 18011KT 26/15 A2997 RMK A01 T02620149  RH  050%=      5-min Rain = 0
KBR1 180709Z 18012KT 26/15 A2997 RMK A01 T02620149  RH  050%=      5-min Rain = 0
KBR1 180710Z 18011KT 26/15 A2997 RMK A01 T02620149  RH  050%=      5-min Rain = 0
KBR1 180711Z 18011KT 26/15 A2997 RMK A01 T02610149  RH  050%=      5-min Rain = 0
KBR1 180712Z 18011KT 26/15 A2997 RMK A01 T02610149  RH  050%=      5-min Rain = 0
KBR1 180713Z 18010KT 26/15 A2997 RMK A01 T02600149  RH  050%=      5-min Rain = 0
KBR1 180714Z 18011KT 26/15 A2997 RMK A01 T02590149  RH  051%=      5-min Rain = 0
KBR1 180715Z 18011KT 26/15 A2997 RMK A01 T02590149  RH  051%=      5-min Rain = 0
KBR1 180716Z 18010KT 26/15 A2997 RMK A01 T02590149  RH  051%=      5-min Rain = 0
KBR1 180717Z 18010KT 26/15 A2997 RMK A01 T02590149  RH  051%=      5-min Rain = 0
KBR1 180718Z 18010KT 26/15 A2997 RMK A01 T02580149  RH  051%=      5-min Rain = 0
KBR1 180719Z 18010KT 26/15 A2997 RMK A01 T02580149  RH  051%=      5-min Rain = 0
KBR1 180720Z 18010KT 26/15 A2997 RMK A01 T02570149  RH  051%=      5-min Rain = 0
KBR1 180721Z 18009KT 26/15 A2997 RMK A01 T02570149  RH  051%=      5-min Rain = 0
KBR1 180722Z 18010KT 26/15 A2997 RMK A01 T02560149  RH  051%=      5-min Rain = 0
KBR1 180723Z 18009KT 26/15 A2997 RMK A01 T02560149  RH  051%=      5-min Rain = 0
KBR1 180724Z 18010KT 26/15 A2997 RMK A01 T02560149  RH  052%=      5-min Rain = 0
KBR1 180725Z 18009KT 26/15 A2997 RMK A01 T02550149  RH  052%=      5-min Rain = 0
KBR1 180726Z 18010KT 26/15 A2997 RMK A01 T02550149  RH  052%=      5-min Rain = 0
KBR1 180727Z 18009KT 26/15 A2997 RMK A01 T02550149  RH  052%=      5-min Rain = 0
KBR1 180728Z 18010KT 25/15 A2996 RMK A01 T02540149  RH  052%=      5-min Rain = 0
KBR1 180729Z 18010KT 25/15 A2996 RMK A01 T02540149  RH  052%=      5-min Rain = 0
KBR1 180730Z 18010KT 25/15 A2996 RMK A01 T02540149  RH  052%=      5-min Rain = 0
KBR1 180731Z 18010KT 25/15 A2996 RMK A01 T02540148  RH  052%=      5-min Rain = 0
KBR1 180732Z 18011KT 25/15 A2996 RMK A01 T02540149  RH  052%=      5-min Rain = 0
KBR1 180733Z 18010KT 25/15 A2996 RMK A01 T02540149  RH  052%=      5-min Rain = 0
KBR1 180734Z 18009KT 25/15 A2996 RMK A01 T02540149  RH  052%=      5-min Rain = 0
KBR1 180735Z 18009KT 25/15 A2996 RMK A01 T02530149  RH  052%=      5-min Rain = 0
KBR1 180736Z 18010KT 25/15 A2996 RMK A01 T02530149  RH  052%=      5-min Rain = 0
KBR1 180737Z 18010KT 25/15 A2997 RMK A01 T02530149  RH  053%=      5-min Rain = 0
KBR1 180738Z 18010KT 25/15 A2997 RMK A01 T02530149  RH  053%=      5-min Rain = 0
KBR1 180739Z 18010KT 25/15 A2997 RMK A01 T02520149  RH  053%=      5-min Rain = 0
KBR1 180740Z 18010KT 25/15 A2997 RMK A01 T02520149  RH  053%=      5-min Rain = 0
KBR1 180741Z 18009KT 25/15 A2997 RMK A01 T02510149  RH  053%=      5-min Rain = 0
KBR1 180742Z 18009KT 25/15 A2997 RMK A01 T02510149  RH  053%=      5-min Rain = 0
KBR1 180743Z 18010KT 25/15 A2997 RMK A01 T02500149  RH  053%=      5-min Rain = 0
KBR1 180744Z 17009KT 25/15 A2997 RMK A01 T02500149  RH  053%=      5-min Rain = 0
KBR1 180745Z 17009KT 25/15 A2997 RMK A01 T02500149  RH  053%=      5-min Rain = 0
KBR1 180746Z 17009KT 25/15 A2997 RMK A01 T02490149  RH  054%=      5-min Rain = 0
KBR1 180747Z 17010KT 25/15 A2997 RMK A01 T02490148  RH  054%=      5-min Rain = 0
KBR1 180748Z 17009KT 25/15 A2997 RMK A01 T02490149  RH  054%=      5-min Rain = 0
KBR1 180749Z 17009KT 25/15 A2997 RMK A01 T02480149  RH  054%=      5-min Rain = 0
KBR1 180750Z 17009KT 25/15 A2997 RMK A01 T02480149  RH  054%=      5-min Rain = 0
KBR1 180751Z 17009KT 25/15 A2996 RMK A01 T02470148  RH  054%=      5-min Rain = 0
KBR1 180752Z 17008KT 25/15 A2996 RMK A01 T02470149  RH  054%=      5-min Rain = 0
KBR1 180753Z 18009KT 25/15 A2996 RMK A01 T02470149  RH  054%=      5-min Rain = 0
KBR1 180754Z 18009KT 25/15 A2996 RMK A01 T02470149  RH  054%=      5-min Rain = 0
KBR1 180755Z 17009KT 25/15 A2996 RMK A01 T02470149  RH  054%=      5-min Rain = 0
KBR1 180756Z 17009KT 25/15 A2996 RMK A01 T02460149  RH  055%=      5-min Rain = 0
KBR1 180757Z 17010KT 25/15 A2996 RMK A01 T02450148  RH  055%=      5-min Rain = 0
KBR1 180758Z 17009KT 25/15 A2996 RMK A01 T02450148  RH  055%=      5-min Rain = 0
KBR1 180759Z 17009KT 25/15 A2996 RMK A01 T02450148  RH  055%=      5-min Rain = 0
KBR1 180800Z 17009KT 25/15 A2996 RMK A01 T02450149  RH  055%=      5-min Rain = 0
KBR1 180801Z 17009KT 25/15 A2996 RMK A01 T02450149  RH  055%=      5-min Rain = 0
KBR1 180802Z 18009KT 25/15 A2996 RMK A01 T02450149  RH  055%=      5-min Rain = 0
KBR1 180803Z 18009KT 24/15 A2996 RMK A01 T02440149  RH  055%=      5-min Rain = 0
KBR1 180804Z 18008KT 24/15 A2996 RMK A01 T02440149  RH  055%=      5-min Rain = 0
KBR1 180805Z 18008KT 24/15 A2996 RMK A01 T02440149  RH  055%=      5-min Rain = 0
KBR1 180806Z 19008KT 24/15 A2996 RMK A01 T02440149  RH  055%=      5-min Rain = 0
KBR1 180807Z 18008KT 24/15 A2996 RMK A01 T02440149  RH  055%=      5-min Rain = 0
KBR1 180808Z 18008KT 24/15 A2996 RMK A01 T02440149  RH  056%=      5-min Rain = 0
KBR1 180809Z 18009KT 24/15 A2996 RMK A01 T02430149  RH  056%=      5-min Rain = 0
KBR1 180810Z 18009KT 24/15 A2996 RMK A01 T02430149  RH  056%=      5-min Rain = 0
KBR1 180811Z 18009KT 24/15 A2996 RMK A01 T02430149  RH  056%=      5-min Rain = 0
KBR1 180812Z 18009KT 24/15 A2996 RMK A01 T02430149  RH  056%=      5-min Rain = 0
KBR1 180813Z 18009KT 24/15 A2996 RMK A01 T02430149  RH  056%=      5-min Rain = 0
KBR1 180814Z 19009KT 24/15 A2996 RMK A01 T02430149  RH  056%=      5-min Rain = 0
KBR1 180815Z 19008KT 24/15 A2996 RMK A01 T02430149  RH  056%=      5-min Rain = 0
KBR1 180816Z 20009KT 24/15 A2996 RMK A01 T02430149  RH  056%=      5-min Rain = 0
KBR1 180817Z 20008KT 24/15 A2996 RMK A01 T02430149  RH  056%=      5-min Rain = 0
KBR1 180818Z 20008KT 24/15 A2995 RMK A01 T02440149  RH  055%=      5-min Rain = 0
KBR1 180819Z 19008KT 24/15 A2996 RMK A01 T02440149  RH  055%=      5-min Rain = 0
KBR1 180820Z 18008KT 24/15 A2996 RMK A01 T02440149  RH  056%=      5-min Rain = 0
KBR1 180821Z 18009KT 24/15 A2996 RMK A01 T02430150  RH  056%=      5-min Rain = 0
KBR1 180822Z 18009KT 24/15 A2996 RMK A01 T02430149  RH  056%=      5-min Rain = 0
KBR1 180823Z 17009KT 24/15 A2996 RMK A01 T02430150  RH  056%=      5-min Rain = 0
KBR1 180824Z 17009KT 24/15 A2996 RMK A01 T02430150  RH  056%=      5-min Rain = 0
KBR1 180825Z 18009KT 24/15 A2995 RMK A01 T02420149  RH  056%=      5-min Rain = 0
KBR1 180826Z 18010KT 24/15 A2995 RMK A01 T02420149  RH  056%=      5-min Rain = 0
KBR1 180827Z 19009KT 24/15 A2995 RMK A01 T02420149  RH  056%=      5-min Rain = 0
KBR1 180828Z 19010KT 24/15 A2995 RMK A01 T02430149  RH  056%=      5-min Rain = 0
KBR1 180829Z 20010KT 24/15 A2995 RMK A01 T02440149  RH  055%=      5-min Rain = 0
KBR1 180830Z 20010KT 25/15 A2995 RMK A01 T02450149  RH  055%=      5-min Rain = 0
KBR1 180831Z 21010KT 25/15 A2995 RMK A01 T02460149  RH  055%=      5-min Rain = 0
KBR1 180832Z 21010KT 25/15 A2995 RMK A01 T02460148  RH  055%=      5-min Rain = 0
KBR1 180833Z 21009KT 25/15 A2995 RMK A01 T02460149  RH  055%=      5-min Rain = 0
KBR1 180834Z 22009KT 25/15 A2995 RMK A01 T02450149  RH  055%=      5-min Rain = 0
KBR1 180835Z 22008KT 24/15 A2995 RMK A01 T02440149  RH  055%=      5-min Rain = 0
KBR1 180836Z 22008KT 24/15 A2995 RMK A01 T02430149  RH  056%=      5-min Rain = 0
KBR1 180837Z 21008KT 24/15 A2995 RMK A01 T02420149  RH  056%=      5-min Rain = 0
KBR1 180838Z 20007KT 24/15 A2995 RMK A01 T02410149  RH  056%=      5-min Rain = 0
KBR1 180839Z 19007KT 24/15 A2995 RMK A01 T02400149  RH  057%=      5-min Rain = 0
KBR1 180840Z 18007KT 24/15 A2995 RMK A01 T02390149  RH  057%=      5-min Rain = 0
KBR1 180841Z 17007KT 24/15 A2995 RMK A01 T02380149  RH  057%=      5-min Rain = 0
KBR1 180842Z 18007KT 24/15 A2995 RMK A01 T02380148  RH  057%=      5-min Rain = 0
KBR1 180843Z 18007KT 24/15 A2995 RMK A01 T02370148  RH  057%=      5-min Rain = 0
KBR1 180844Z 19007KT 24/15 A2995 RMK A01 T02370148  RH  057%=      5-min Rain = 0
KBR1 180845Z 19007KT 24/15 A2995 RMK A01 T02370148  RH  057%=      5-min Rain = 0
KBR1 180846Z 20007KT 24/15 A2995 RMK A01 T02370148  RH  057%=      5-min Rain = 0
KBR1 180847Z 20008KT 24/15 A2995 RMK A01 T02370148  RH  057%=      5-min Rain = 0
KBR1 180848Z 21007KT 24/15 A2995 RMK A01 T02370148  RH  057%=      5-min Rain = 0
KBR1 180849Z 21008KT 24/15 A2995 RMK A01 T02360148  RH  058%=      5-min Rain = 0
KBR1 180850Z 22008KT 24/15 A2995 RMK A01 T02360148  RH  058%=      5-min Rain = 0
KBR1 180851Z 22008KT 24/15 A2995 RMK A01 T02360148  RH  058%=      5-min Rain = 0
KBR1 180852Z 22007KT 24/15 A2995 RMK A01 T02350148  RH  058%=      5-min Rain = 0
KBR1 180853Z 22007KT 23/15 A2995 RMK A01 T02340149  RH  059%=      5-min Rain = 0
KBR1 180854Z 23007KT 23/15 A2995 RMK A01 T02330149  RH  059%=      5-min Rain = 0
KBR1 180855Z 22007KT 23/15 A2994 RMK A01 T02320149  RH  060%=      5-min Rain = 0
KBR1 180856Z 22006KT 23/15 A2994 RMK A01 T02310149  RH  060%=      5-min Rain = 0
KBR1 180857Z 22006KT 23/15 A2994 RMK A01 T02290149  RH  061%=      5-min Rain = 0
KBR1 180858Z 21006KT 23/15 A2994 RMK A01 T02280149  RH  061%=      5-min Rain = 0
KBR1 180859Z 20006KT 23/15 A2994 RMK A01 T02260149  RH  062%=      5-min Rain = 0
KBR1 180900Z 19007KT 23/15 A2994 RMK A01 T02250149  RH  062%=      5-min Rain = 0
KBR1 180901Z 19007KT 22/15 A2994 RMK A01 T02240149  RH  062%=      5-min Rain = 0
KBR1 180902Z 19008KT 22/15 A2994 RMK A01 T02240149  RH  062%=      5-min Rain = 0
KBR1 180903Z 19008KT 22/15 A2994 RMK A01 T02240149  RH  062%=      5-min Rain = 0
KBR1 180904Z 19008KT 23/15 A2994 RMK A01 T02260149  RH  062%=      5-min Rain = 0
KBR1 180905Z 20007KT 23/15 A2994 RMK A01 T02270148  RH  061%=      5-min Rain = 0
KBR1 180906Z 20007KT 23/15 A2994 RMK A01 T02270148  RH  061%=      5-min Rain = 0
KBR1 180907Z 19008KT 23/15 A2994 RMK A01 T02270148  RH  061%=      5-min Rain = 0
KBR1 180908Z 19007KT 23/15 A2994 RMK A01 T02270148  RH  061%=      5-min Rain = 0
KBR1 180909Z 19008KT 23/15 A2994 RMK A01 T02270148  RH  061%=      5-min Rain = 0
KBR1 180910Z 18008KT 23/15 A2994 RMK A01 T02250148  RH  061%=      5-min Rain = 0
KBR1 180911Z 17010KT 23/15 A2994 RMK A01 T02250148  RH  062%=      5-min Rain = 0
KBR1 180912Z 17010KT 23/15 A2994 RMK A01 T02250148  RH  061%=      5-min Rain = 0
KBR1 180913Z 17010KT 23/15 A2994 RMK A01 T02270147  RH  061%=      5-min Rain = 0
KBR1 180914Z 17010KT 23/15 A2994 RMK A01 T02280147  RH  060%=      5-min Rain = 0
KBR1 180915Z 17010KT 23/15 A2994 RMK A01 T02300147  RH  060%=      5-min Rain = 0
KBR1 180916Z 18010KT 23/15 A2994 RMK A01 T02300147  RH  059%=      5-min Rain = 0
KBR1 180917Z 18010KT 23/15 A2994 RMK A01 T02310147  RH  059%=      5-min Rain = 0
KBR1 180918Z 18010KT 23/15 A2994 RMK A01 T02320147  RH  059%=      5-min Rain = 0
KBR1 180919Z 17010KT 23/15 A2994 RMK A01 T02320147  RH  059%=      5-min Rain = 0
KBR1 180920Z 17011KT 23/15 A2994 RMK A01 T02320147  RH  059%=      5-min Rain = 0
KBR1 180921Z 17012KT 23/15 A2994 RMK A01 T02320147  RH  059%=      5-min Rain = 0
KBR1 180922Z 17011KT 23/15 A2994 RMK A01 T02310147  RH  059%=      5-min Rain = 0
KBR1 180923Z 17010KT 23/15 A2994 RMK A01 T02310147  RH  059%=      5-min Rain = 0
KBR1 180924Z 17011KT 23/15 A2994 RMK A01 T02300147  RH  059%=      5-min Rain = 0
KBR1 180925Z 17010KT 23/15 A2994 RMK A01 T02300147  RH  059%=      5-min Rain = 0
KBR1 180926Z 18010KT 23/15 A2994 RMK A01 T02300147  RH  059%=      5-min Rain = 0
KBR1 180927Z 18010KT 23/15 A2994 RMK A01 T02300147  RH  059%=      5-min Rain = 0
KBR1 180928Z 18011KT 23/15 A2994 RMK A01 T02320147  RH  059%=      5-min Rain = 0
KBR1 180929Z 18010KT 23/15 A2994 RMK A01 T02320147  RH  059%=      5-min Rain = 0
KBR1 180930Z 18010KT 23/15 A2994 RMK A01 T02330146  RH  058%=      5-min Rain = 0
KBR1 180931Z 18010KT 23/15 A2994 RMK A01 T02330147  RH  058%=      5-min Rain = 0
KBR1 180932Z 17011KT 23/15 A2995 RMK A01 T02340147  RH  058%=      5-min Rain = 0
KBR1 180933Z 17011KT 23/15 A2995 RMK A01 T02330147  RH  058%=      5-min Rain = 0
KBR1 180934Z 17011KT 23/15 A2995 RMK A01 T02320147  RH  059%=      5-min Rain = 0
KBR1 180935Z 17010KT 23/15 A2995 RMK A01 T02310147  RH  059%=      5-min Rain = 0
KBR1 180936Z 17010KT 23/15 A2995 RMK A01 T02310147  RH  059%=      5-min Rain = 0
KBR1 180937Z 18010KT 23/15 A2995 RMK A01 T02310147  RH  059%=      5-min Rain = 0
KBR1 180938Z 18010KT 23/15 A2995 RMK A01 T02320147  RH  059%=      5-min Rain = 0
KBR1 180939Z 17009KT 23/15 A2995 RMK A01 T02310147  RH  059%=      5-min Rain = 0
KBR1 180940Z 17010KT 23/15 A2995 RMK A01 T02310147  RH  059%=      5-min Rain = 0
KBR1 180941Z 16011KT 23/15 A2995 RMK A01 T02300147  RH  060%=      5-min Rain = 0
KBR1 180942Z 16012KT 23/15 A2995 RMK A01 T02290147  RH  060%=      5-min Rain = 0
KBR1 180943Z 16012KT 23/15 A2995 RMK A01 T02280147  RH  060%=      5-min Rain = 0
KBR1 180944Z 17012KT 23/15 A2995 RMK A01 T02290148  RH  060%=      5-min Rain = 0
KBR1 180945Z 17011KT 23/15 A2995 RMK A01 T02290148  RH  060%=      5-min Rain = 0
KBR1 180946Z 17011KT 23/15 A2995 RMK A01 T02290148  RH  060%=      5-min Rain = 0
KBR1 180947Z 17011KT 23/15 A2995 RMK A01 T02290148  RH  060%=      5-min Rain = 0
KBR1 180948Z 18011KT 23/15 A2995 RMK A01 T02290148  RH  060%=      5-min Rain = 0
KBR1 180949Z 18012KT 23/15 A2995 RMK A01 T02290148  RH  060%=      5-min Rain = 0
KBR1 180950Z 18010KT 23/15 A2995 RMK A01 T02300148  RH  060%=      5-min Rain = 0
KBR1 180951Z 17011KT 23/15 A2995 RMK A01 T02300148  RH  060%=      5-min Rain = 0
KBR1 180952Z 17011KT 23/15 A2995 RMK A01 T02300149  RH  060%=      5-min Rain = 0
KBR1 180953Z 17011KT 23/15 A2995 RMK A01 T02290148  RH  060%=      5-min Rain = 0
KBR1 180954Z 16011KT 23/15 A2995 RMK A01 T02290148  RH  061%=      5-min Rain = 0
KBR1 180955Z 17010KT 23/15 A2995 RMK A01 T02280149  RH  061%=      5-min Rain = 0
KBR1 180956Z 17009KT 23/15 A2995 RMK A01 T02280148  RH  061%=      5-min Rain = 0
KBR1 180957Z 17010KT 23/15 A2995 RMK A01 T02280149  RH  061%=      5-min Rain = 0
KBR1 180958Z 17010KT 23/15 A2995 RMK A01 T02280149  RH  061%=      5-min Rain = 0
KBR1 180959Z 17010KT 23/15 A2995 RMK A01 T02270148  RH  061%=      5-min Rain = 0
KBR1 181000Z 17009KT 23/15 A2995 RMK A01 T02270148  RH  061%=      5-min Rain = 0
KBR1 181001Z 16008KT 23/15 A2995 RMK A01 T02260148  RH  061%=      5-min Rain = 0
KBR1 181002Z 16009KT 23/15 A2995 RMK A01 T02260148  RH  061%=      5-min Rain = 0
KBR1 181003Z 17008KT 23/15 A2995 RMK A01 T02250148  RH  062%=      5-min Rain = 0
KBR1 181004Z 17009KT 23/15 A2995 RMK A01 T02250148  RH  062%=      5-min Rain = 0
KBR1 181005Z 17009KT 22/15 A2995 RMK A01 T02240148  RH  062%=      5-min Rain = 0
KBR1 181006Z 17009KT 22/15 A2995 RMK A01 T02240148  RH  062%=      5-min Rain = 0
KBR1 181007Z 17008KT 22/15 A2995 RMK A01 T02240148  RH  062%=      5-min Rain = 0
KBR1 181008Z 16008KT 23/15 A2995 RMK A01 T02250148  RH  062%=      5-min Rain = 0
KBR1 181009Z 16008KT 22/15 A2995 RMK A01 T02240148  RH  062%=      5-min Rain = 0
KBR1 181010Z 16008KT 22/15 A2995 RMK A01 T02240148  RH  062%=      5-min Rain = 0
KBR1 181011Z 16009KT 22/15 A2995 RMK A01 T02230148  RH  062%=      5-min Rain = 0
KBR1 181012Z 16009KT 22/15 A2995 RMK A01 T02220148  RH  063%=      5-min Rain = 0
KBR1 181013Z 16008KT 22/15 A2995 RMK A01 T02220148  RH  063%=      5-min Rain = 0
KBR1 181014Z 16007KT 22/15 A2995 RMK A01 T02210148  RH  063%=      5-min Rain = 0
KBR1 181015Z 16007KT 22/15 A2995 RMK A01 T02210148  RH  063%=      5-min Rain = 0
KBR1 181016Z 16007KT 22/15 A2995 RMK A01 T02200148  RH  064%=      5-min Rain = 0
KBR1 181017Z 16008KT 22/15 A2995 RMK A01 T02200148  RH  064%=      5-min Rain = 0
KBR1 181018Z 16008KT 22/15 A2995 RMK A01 T02200148  RH  064%=      5-min Rain = 0
KBR1 181019Z 17007KT 22/15 A2995 RMK A01 T02200148  RH  064%=      5-min Rain = 0
KBR1 181020Z 17006KT 22/15 A2995 RMK A01 T02200148  RH  064%=      5-min Rain = 0
KBR1 181021Z 17006KT 22/15 A2995 RMK A01 T02200148  RH  064%=      5-min Rain = 0
KBR1 181022Z 16007KT 22/15 A2995 RMK A01 T02200148  RH  064%=      5-min Rain = 0
KBR1 181023Z 16007KT 22/15 A2995 RMK A01 T02180148  RH  064%=      5-min Rain = 0
KBR1 181024Z 17007KT 22/15 A2995 RMK A01 T02180148  RH  064%=      5-min Rain = 0
KBR1 181025Z 17007KT 22/15 A2995 RMK A01 T02180148  RH  064%=      5-min Rain = 0
KBR1 181026Z 17008KT 22/15 A2995 RMK A01 T02180148  RH  064%=      5-min Rain = 0
KBR1 181027Z 17008KT 22/15 A2995 RMK A01 T02180148  RH  064%=      5-min Rain = 0
KBR1 181028Z 16008KT 22/15 A2995 RMK A01 T02180147  RH  064%=      5-min Rain = 0
KBR1 181029Z 16008KT 22/15 A2995 RMK A01 T02180148  RH  064%=      5-min Rain = 0
KBR1 181030Z 16007KT 22/15 A2995 RMK A01 T02170147  RH  064%=      5-min Rain = 0
KBR1 181031Z 17007KT 22/15 A2995 RMK A01 T02160147  RH  065%=      5-min Rain = 0
KBR1 181032Z 17007KT 22/15 A2995 RMK A01 T02160147  RH  065%=      5-min Rain = 0
KBR1 181033Z 17008KT 22/15 A2995 RMK A01 T02150147  RH  065%=      5-min Rain = 0
KBR1 181034Z 17008KT 22/15 A2995 RMK A01 T02150147  RH  065%=      5-min Rain = 0
KBR1 181035Z 17009KT 22/15 A2995 RMK A01 T02150147  RH  065%=      5-min Rain = 0
KBR1 181036Z 16009KT 22/15 A2995 RMK A01 T02160148  RH  065%=      5-min Rain = 0
KBR1 181037Z 16009KT 22/15 A2995 RMK A01 T02160147  RH  065%=      5-min Rain = 0
KBR1 181038Z 16009KT 22/15 A2995 RMK A01 T02160148  RH  065%=      5-min Rain = 0
KBR1 181039Z 16008KT 22/15 A2995 RMK A01 T02150147  RH  065%=      5-min Rain = 0
KBR1 181040Z 16008KT 22/15 A2995 RMK A01 T02150147  RH  065%=      5-min Rain = 0
KBR1 181041Z 16008KT 21/15 A2995 RMK A01 T02140147  RH  066%=      5-min Rain = 0
KBR1 181042Z 15008KT 21/15 A2995 RMK A01 T02130147  RH  066%=      5-min Rain = 0
KBR1 181043Z 15008KT 21/15 A2995 RMK A01 T02120147  RH  066%=      5-min Rain = 0
KBR1 181044Z 15007KT 21/15 A2995 RMK A01 T02120147  RH  066%=      5-min Rain = 0
KBR1 181045Z 15007KT 21/15 A2995 RMK A01 T02110147  RH  067%=      5-min Rain = 0
KBR1 181046Z 15008KT 21/15 A2995 RMK A01 T02100146  RH  067%=      5-min Rain = 0
KBR1 181047Z 15008KT 21/15 A2995 RMK A01 T02080146  RH  067%=      5-min Rain = 0
KBR1 181048Z 15007KT 21/15 A2995 RMK A01 T02080146  RH  068%=      5-min Rain = 0
KBR1 181049Z 16007KT 21/15 A2995 RMK A01 T02080146  RH  068%=      5-min Rain = 0
KBR1 181050Z 16007KT 21/15 A2996 RMK A01 T02070146  RH  068%=      5-min Rain = 0
KBR1 181051Z 16007KT 21/15 A2996 RMK A01 T02080146  RH  068%=      5-min Rain = 0
KBR1 181052Z 16007KT 21/15 A2996 RMK A01 T02080146  RH  068%=      5-min Rain = 0
KBR1 181053Z 15007KT 21/15 A2996 RMK A01 T02080146  RH  068%=      5-min Rain = 0
KBR1 181054Z 15007KT 21/15 A2996 RMK A01 T02070146  RH  068%=      5-min Rain = 0
KBR1 181055Z 15007KT 21/15 A2996 RMK A01 T02080146  RH  068%=      5-min Rain = 0
KBR1 181056Z 15007KT 21/15 A2996 RMK A01 T02080146  RH  068%=      5-min Rain = 0
KBR1 181057Z 15008KT 21/15 A2996 RMK A01 T02080146  RH  068%=      5-min Rain = 0
KBR1 181058Z 15008KT 21/15 A2996 RMK A01 T02080146  RH  068%=      5-min Rain = 0
KBR1 181059Z 16008KT 21/15 A2995 RMK A01 T02080146  RH  068%=      5-min Rain = 0
KBR1 181100Z 16008KT 21/15 A2995 RMK A01 T02080146  RH  068%=      5-min Rain = 0
KBR1 181101Z 16008KT 21/15 A2995 RMK A01 T02080147  RH  068%=      5-min Rain = 0
KBR1 181102Z 16008KT 21/15 A2995 RMK A01 T02090147  RH  068%=      5-min Rain = 0
KBR1 181103Z 16008KT 21/15 A2995 RMK A01 T02100147  RH  067%=      5-min Rain = 0
KBR1 181104Z 16008KT 21/15 A2995 RMK A01 T02100147  RH  067%=      5-min Rain = 0
KBR1 181105Z 16008KT 21/15 A2995 RMK A01 T02110147  RH  067%=      5-min Rain = 0
KBR1 181106Z 16008KT 21/15 A2996 RMK A01 T02110147  RH  067%=      5-min Rain = 0
KBR1 181107Z 16008KT 21/15 A2996 RMK A01 T02110147  RH  067%=      5-min Rain = 0
KBR1 181108Z 16008KT 21/15 A2996 RMK A01 T02110147  RH  067%=      5-min Rain = 0
KBR1 181109Z 16008KT 21/15 A2996 RMK A01 T02110147  RH  067%=      5-min Rain = 0
KBR1 181110Z 16008KT 21/15 A2996 RMK A01 T02110147  RH  067%=      5-min Rain = 0
KBR1 181111Z 16008KT 21/15 A2996 RMK A01 T02110147  RH  067%=      5-min Rain = 0
KBR1 181112Z 16008KT 21/15 A2996 RMK A01 T02100147  RH  067%=      5-min Rain = 0
KBR1 181113Z 16008KT 21/15 A2996 RMK A01 T02100147  RH  067%=      5-min Rain = 0
KBR1 181114Z 17007KT 21/15 A2996 RMK A01 T02090147  RH  067%=      5-min Rain = 0
KBR1 181115Z 17007KT 21/15 A2996 RMK A01 T02090147  RH  068%=      5-min Rain = 0
KBR1 181116Z 17007KT 21/15 A2996 RMK A01 T02080146  RH  068%=      5-min Rain = 0
KBR1 181117Z 17007KT 21/15 A2996 RMK A01 T02070147  RH  068%=      5-min Rain = 0
KBR1 181118Z 17007KT 21/15 A2996 RMK A01 T02070147  RH  068%=      5-min Rain = 0
KBR1 181119Z 17007KT 21/15 A2996 RMK A01 T02070147  RH  068%=      5-min Rain = 0
KBR1 181120Z 17008KT 21/15 A2996 RMK A01 T02070147  RH  068%=      5-min Rain = 0
KBR1 181121Z 17008KT 21/15 A2996 RMK A01 T02080148  RH  068%=      5-min Rain = 0
KBR1 181122Z 17008KT 21/15 A2996 RMK A01 T02090148  RH  068%=      5-min Rain = 0
KBR1 181123Z 17008KT 21/15 A2996 RMK A01 T02100148  RH  068%=      5-min Rain = 0
KBR1 181124Z 17008KT 21/15 A2996 RMK A01 T02100148  RH  068%=      5-min Rain = 0
KBR1 181125Z 17008KT 21/15 A2996 RMK A01 T02110148  RH  067%=      5-min Rain = 0
KBR1 181126Z 17008KT 21/15 A2996 RMK A01 T02120148  RH  067%=      5-min Rain = 0
KBR1 181127Z 17008KT 21/15 A2996 RMK A01 T02120149  RH  067%=      5-min Rain = 0
KBR1 181128Z 18008KT 21/15 A2996 RMK A01 T02130149  RH  067%=      5-min Rain = 0
KBR1 181129Z 17008KT 21/15 A2996 RMK A01 T02130149  RH  067%=      5-min Rain = 0
KBR1 181130Z 17008KT 21/15 A2996 RMK A01 T02130149  RH  067%=      5-min Rain = 0
KBR1 181131Z 17008KT 21/15 A2995 RMK A01 T02130149  RH  067%=      5-min Rain = 0
KBR1 181132Z 17008KT 21/15 A2995 RMK A01 T02130148  RH  067%=      5-min Rain = 0
KBR1 181133Z 17008KT 21/15 A2995 RMK A01 T02130149  RH  067%=      5-min Rain = 0
KBR1 181134Z 17009KT 21/15 A2996 RMK A01 T02130149  RH  067%=      5-min Rain = 0
KBR1 181135Z 17008KT 21/15 A2996 RMK A01 T02140149  RH  067%=      5-min Rain = 0
KBR1 181136Z 17008KT 21/15 A2996 RMK A01 T02130149  RH  067%=      5-min Rain = 0
KBR1 181137Z 18008KT 21/15 A2996 RMK A01 T02130149  RH  067%=      5-min Rain = 0
KBR1 181138Z 18008KT 21/15 A2996 RMK A01 T02130149  RH  067%=      5-min Rain = 0
KBR1 181139Z 18007KT 21/15 A2995 RMK A01 T02140150  RH  067%=      5-min Rain = 0
KBR1 181140Z 18008KT 21/15 A2995 RMK A01 T02130149  RH  067%=      5-min Rain = 0
KBR1 181141Z 18008KT 21/15 A2995 RMK A01 T02130149  RH  067%=      5-min Rain = 0
KBR1 181142Z 17008KT 21/15 A2995 RMK A01 T02130149  RH  067%=      5-min Rain = 0
KBR1 181143Z 17009KT 21/15 A2995 RMK A01 T02120149  RH  067%=      5-min Rain = 0
KBR1 181144Z 17009KT 21/15 A2995 RMK A01 T02120149  RH  067%=      5-min Rain = 0
KBR1 181145Z 17009KT 21/15 A2995 RMK A01 T02120149  RH  067%=      5-min Rain = 0
KBR1 181146Z 17009KT 21/15 A2995 RMK A01 T02120149  RH  067%=      5-min Rain = 0
KBR1 181147Z 17008KT 21/15 A2995 RMK A01 T02120149  RH  067%=      5-min Rain = 0
KBR1 181148Z 18008KT 21/15 A2995 RMK A01 T02120149  RH  067%=      5-min Rain = 0
KBR1 181149Z 18008KT 21/15 A2995 RMK A01 T02120149  RH  067%=      5-min Rain = 0
KBR1 181150Z 17007KT 21/15 A2995 RMK A01 T02120149  RH  067%=      5-min Rain = 0
KBR1 181151Z 17007KT 21/15 A2995 RMK A01 T02120150  RH  068%=      5-min Rain = 0
KBR1 181152Z 17008KT 21/15 A2996 RMK A01 T02110150  RH  068%=      5-min Rain = 0
KBR1 181153Z 17007KT 21/15 A2996 RMK A01 T02110149  RH  068%=      5-min Rain = 0
KBR1 181154Z 17007KT 21/15 A2996 RMK A01 T02100150  RH  068%=      5-min Rain = 0
KBR1 181155Z 17007KT 21/15 A2996 RMK A01 T02100149  RH  068%=      5-min Rain = 0
KBR1 181156Z 17006KT 21/15 A2996 RMK A01 T02100150  RH  068%=      5-min Rain = 0
KBR1 181157Z 17006KT 21/15 A2996 RMK A01 T02100150  RH  068%=      5-min Rain = 0
KBR1 181158Z 17006KT 21/15 A2996 RMK A01 T02100149  RH  068%=      5-min Rain = 0
KBR1 181159Z 17006KT 21/15 A2996 RMK A01 T02100149  RH  068%=      5-min Rain = 0
KBR1 181200Z 17006KT 21/15 A2996 RMK A01 T02100150  RH  068%=      5-min Rain = 0
KBR1 181201Z 17006KT 21/15 A2996 RMK A01 T02100150  RH  068%=      5-min Rain = 0
KBR1 181202Z 17006KT 21/15 A2996 RMK A01 T02100150  RH  068%=      5-min Rain = 0
KBR1 181203Z 17005KT 21/15 A2996 RMK A01 T02090150  RH  069%=      5-min Rain = 0
KBR1 181204Z 18005KT 21/15 A2996 RMK A01 T02090150  RH  069%=      5-min Rain = 0
KBR1 181205Z 18004KT 21/15 A2996 RMK A01 T02080150  RH  069%=      5-min Rain = 0
KBR1 181206Z 18004KT 21/15 A2996 RMK A01 T02070150  RH  070%=      5-min Rain = 0
KBR1 181207Z 19003KT 21/15 A2996 RMK A01 T02060150  RH  070%=      5-min Rain = 0
KBR1 181208Z 19002KT 21/15 A2996 RMK A01 T02050150  RH  071%=      5-min Rain = 0
KBR1 181209Z 18003KT 20/15 A2996 RMK A01 T02040150  RH  071%=      5-min Rain = 0
KBR1 181210Z 18004KT 20/15 A2996 RMK A01 T02040151  RH  072%=      5-min Rain = 0
KBR1 181211Z 18005KT 20/15 A2996 RMK A01 T02030151  RH  072%=      5-min Rain = 0
KBR1 181212Z 17006KT 20/15 A2996 RMK A01 T02020151  RH  072%=      5-min Rain = 0
KBR1 181213Z 17006KT 20/15 A2996 RMK A01 T02020151  RH  072%=      5-min Rain = 0
KBR1 181214Z 17007KT 20/15 A2996 RMK A01 T02040151  RH  072%=      5-min Rain = 0
KBR1 181215Z 17007KT 21/15 A2996 RMK A01 T02070152  RH  071%=      5-min Rain = 0
KBR1 181216Z 17007KT 21/15 A2996 RMK A01 T02090152  RH  070%=      5-min Rain = 0
KBR1 181217Z 17007KT 21/15 A2996 RMK A01 T02100152  RH  069%=      5-min Rain = 0
KBR1 181218Z 17006KT 21/15 A2996 RMK A01 T02120152  RH  069%=      5-min Rain = 0
KBR1 181219Z 17007KT 21/15 A2996 RMK A01 T02120152  RH  068%=      5-min Rain = 0
KBR1 181220Z 17007KT 21/15 A2996 RMK A01 T02130152  RH  068%=      5-min Rain = 0
KBR1 181221Z 17007KT 21/15 A2996 RMK A01 T02140152  RH  068%=      5-min Rain = 0
KBR1 181222Z 17007KT 21/15 A2996 RMK A01 T02140152  RH  068%=      5-min Rain = 0
KBR1 181223Z 17008KT 22/15 A2996 RMK A01 T02150152  RH  067%=      5-min Rain = 0
KBR1 181224Z 17008KT 22/15 A2996 RMK A01 T02150152  RH  067%=      5-min Rain = 0
KBR1 181225Z 17008KT 22/15 A2996 RMK A01 T02160152  RH  067%=      5-min Rain = 0
KBR1 181226Z 17008KT 22/15 A2996 RMK A01 T02160152  RH  067%=      5-min Rain = 0
KBR1 181227Z 17008KT 22/15 A2996 RMK A01 T02160152  RH  067%=      5-min Rain = 0
KBR1 181228Z 17008KT 22/15 A2996 RMK A01 T02170153  RH  067%=      5-min Rain = 0
KBR1 181229Z 17008KT 22/15 A2996 RMK A01 T02180153  RH  066%=      5-min Rain = 0
KBR1 181230Z 17008KT 22/15 A2996 RMK A01 T02180153  RH  066%=      5-min Rain = 0
KBR1 181231Z 17008KT 22/15 A2996 RMK A01 T02190153  RH  066%=      5-min Rain = 0
KBR1 181232Z 17008KT 22/15 A2996 RMK A01 T02190153  RH  066%=      5-min Rain = 0
KBR1 181233Z 16009KT 22/15 A2996 RMK A01 T02190153  RH  066%=      5-min Rain = 0
KBR1 181234Z 17008KT 22/15 A2996 RMK A01 T02200153  RH  066%=      5-min Rain = 0
KBR1 181235Z 17008KT 22/15 A2996 RMK A01 T02200153  RH  066%=      5-min Rain = 0
KBR1 181236Z 17008KT 22/15 A2996 RMK A01 T02200153  RH  066%=      5-min Rain = 0
KBR1 181237Z 17008KT 22/15 A2996 RMK A01 T02210153  RH  066%=      5-min Rain = 0
KBR1 181238Z 16008KT 22/15 A2996 RMK A01 T02210153  RH  065%=      5-min Rain = 0
KBR1 181239Z 17007KT 22/15 A2996 RMK A01 T02210153  RH  065%=      5-min Rain = 0
KBR1 181240Z 17008KT 22/15 A2996 RMK A01 T02220153  RH  065%=      5-min Rain = 0
KBR1 181241Z 17008KT 22/15 A2996 RMK A01 T02230153  RH  065%=      5-min Rain = 0
KBR1 181242Z 16008KT 22/15 A2996 RMK A01 T02240153  RH  064%=      5-min Rain = 0
KBR1 181243Z 16008KT 23/15 A2996 RMK A01 T02250154  RH  064%=      5-min Rain = 0
KBR1 181244Z 16008KT 23/15 A2996 RMK A01 T02260154  RH  064%=      5-min Rain = 0
KBR1 181245Z 16008KT 23/15 A2996 RMK A01 T02260153  RH  063%=      5-min Rain = 0
KBR1 181246Z 16007KT 23/15 A2996 RMK A01 T02270154  RH  063%=      5-min Rain = 0
KBR1 181247Z 17007KT 23/15 A2996 RMK A01 T02280154  RH  063%=      5-min Rain = 0
KBR1 181248Z 16007KT 23/15 A2996 RMK A01 T02290154  RH  062%=      5-min Rain = 0
KBR1 181249Z 17008KT 23/15 A2997 RMK A01 T02300154  RH  062%=      5-min Rain = 0
KBR1 181250Z 17007KT 23/15 A2997 RMK A01 T02310154  RH  062%=      5-min Rain = 0
KBR1 181251Z 16007KT 23/15 A2997 RMK A01 T02320154  RH  061%=      5-min Rain = 0
KBR1 181252Z 16007KT 23/15 A2997 RMK A01 T02330154  RH  061%=      5-min Rain = 0
KBR1 181253Z 17007KT 23/15 A2997 RMK A01 T02340154  RH  061%=      5-min Rain = 0
KBR1 181254Z 17007KT 24/15 A2997 RMK A01 T02350154  RH  060%=      5-min Rain = 0
KBR1 181255Z 17007KT 24/15 A2997 RMK A01 T02350153  RH  060%=      5-min Rain = 0
KBR1 181256Z 17006KT 24/15 A2997 RMK A01 T02360154  RH  060%=      5-min Rain = 0
KBR1 181257Z 17006KT 24/15 A2997 RMK A01 T02360154  RH  060%=      5-min Rain = 0
KBR1 181258Z 17005KT 24/15 A2997 RMK A01 T02370153  RH  059%=      5-min Rain = 0
KBR1 181259Z 17006KT 24/15 A2997 RMK A01 T02370154  RH  060%=      5-min Rain = 0
KBR1 181300Z 17006KT 24/15 A2997 RMK A01 T02370153  RH  059%=      5-min Rain = 0
KBR1 181301Z 17004KT 24/15 A2997 RMK A01 T02380154  RH  059%=      5-min Rain = 0
KBR1 181302Z 17004KT 24/15 A2997 RMK A01 T02390154  RH  059%=      5-min Rain = 0
KBR1 181303Z 19004KT 24/15 A2998 RMK A01 T02400154  RH  059%=      5-min Rain = 0
KBR1 181304Z 19004KT 24/15 A2998 RMK A01 T02400154  RH  058%=      5-min Rain = 0
KBR1 181305Z 19004KT 24/15 A2998 RMK A01 T02410154  RH  058%=      5-min Rain = 0
KBR1 181306Z 18003KT 24/15 A2998 RMK A01 T02410153  RH  058%=      5-min Rain = 0
KBR1 181307Z 18005KT 24/15 A2998 RMK A01 T02420154  RH  058%=      5-min Rain = 0
KBR1 181308Z 18005KT 24/15 A2998 RMK A01 T02420153  RH  058%=      5-min Rain = 0
KBR1 181309Z 17005KT 24/15 A2998 RMK A01 T02430154  RH  058%=      5-min Rain = 0
KBR1 181310Z 19006KT 24/15 A2998 RMK A01 T02430154  RH  058%=      5-min Rain = 0
KBR1 181311Z 18005KT 24/15 A2998 RMK A01 T02430153  RH  057%=      5-min Rain = 0
KBR1 181312Z 19005KT 24/15 A2998 RMK A01 T02430154  RH  058%=      5-min Rain = 0
KBR1 181313Z 20006KT 24/15 A2997 RMK A01 T02430154  RH  057%=      5-min Rain = 0
KBR1 181314Z 20006KT 24/15 A2998 RMK A01 T02430154  RH  057%=      5-min Rain = 0
KBR1 181315Z 21007KT 24/15 A2998 RMK A01 T02430153  RH  057%=      5-min Rain = 0
KBR1 181316Z 21006KT 24/15 A2998 RMK A01 T02430153  RH  057%=      5-min Rain = 0
KBR1 181317Z 21005KT 24/15 A2998 RMK A01 T02430154  RH  057%=      5-min Rain = 0
KBR1 181318Z 20005KT 24/16 A2998 RMK A01 T02430155  RH  058%=      5-min Rain = 0
KBR1 181319Z 20005KT 24/16 A2998 RMK A01 T02430155  RH  058%=      5-min Rain = 0
KBR1 181320Z 20006KT 24/16 A2998 RMK A01 T02440155  RH  057%=      5-min Rain = 0
KBR1 181321Z 20005KT 24/15 A2998 RMK A01 T02440154  RH  057%=      5-min Rain = 0
KBR1 181322Z 21004KT 25/16 A2998 RMK A01 T02450155  RH  057%=      5-min Rain = 0
KBR1 181323Z 22004KT 25/16 A2998 RMK A01 T02450155  RH  057%=      5-min Rain = 0
KBR1 181324Z 24004KT 25/15 A2998 RMK A01 T02450154  RH  057%=      5-min Rain = 0
KBR1 181325Z 24004KT 25/16 A2998 RMK A01 T02450155  RH  057%=      5-min Rain = 0
KBR1 181326Z 23004KT 25/16 A2998 RMK A01 T02450155  RH  057%=      5-min Rain = 0
KBR1 181327Z 23003KT 25/15 A2998 RMK A01 T02460154  RH  057%=      5-min Rain = 0
KBR1 181328Z 22003KT 25/16 A2998 RMK A01 T02460156  RH  057%=      5-min Rain = 0
KBR1 181329Z 21005KT 25/16 A2998 RMK A01 T02460156  RH  057%=      5-min Rain = 0
KBR1 181330Z 21005KT 25/16 A2998 RMK A01 T02470155  RH  057%=      5-min Rain = 0
KBR1 181331Z 22006KT 25/16 A2998 RMK A01 T02480155  RH  056%=      5-min Rain = 0
KBR1 181332Z 21005KT 25/16 A2998 RMK A01 T02480155  RH  056%=      5-min Rain = 0
KBR1 181333Z 21006KT 25/16 A2998 RMK A01 T02480155  RH  056%=      5-min Rain = 0
KBR1 181334Z 21005KT 25/15 A2998 RMK A01 T02480154  RH  056%=      5-min Rain = 0
KBR1 181335Z 21007KT 25/16 A2998 RMK A01 T02490155  RH  056%=      5-min Rain = 0
KBR1 181336Z 20005KT 25/15 A2998 RMK A01 T02490154  RH  055%=      5-min Rain = 0
KBR1 181337Z 21004KT 25/16 A2998 RMK A01 T02500156  RH  056%=      5-min Rain = 0
KBR1 181338Z 23005KT 25/16 A2998 RMK A01 T02510155  RH  055%=      5-min Rain = 0
KBR1 181339Z 22005KT 25/16 A2998 RMK A01 T02520157  RH  056%=      5-min Rain = 0
KBR1 181340Z 19005KT 25/16 A2998 RMK A01 T02530156  RH  055%=      5-min Rain = 0
KBR1 181341Z 22006KT 25/16 A2998 RMK A01 T02530155  RH  054%=      5-min Rain = 0
KBR1 181342Z 21007KT 25/15 A2998 RMK A01 T02530154  RH  054%=      5-min Rain = 0
KBR1 181343Z 20006KT 25/16 A2998 RMK A01 T02530155  RH  055%=      5-min Rain = 0
KBR1 181344Z 21006KT 25/15 A2998 RMK A01 T02530154  RH  054%=      5-min Rain = 0
KBR1 181345Z 21007KT 25/15 A2998 RMK A01 T02520154  RH  054%=      5-min Rain = 0
KBR1 181346Z 20007KT 25/16 A2998 RMK A01 T02530155  RH  055%=      5-min Rain = 0
KBR1 181347Z 21008KT 26/16 A2998 RMK A01 T02550155  RH  054%=      5-min Rain = 0
KBR1 181348Z 20007KT 26/16 A2998 RMK A01 T02550155  RH  054%=      5-min Rain = 0
KBR1 181349Z 21008KT 26/16 A2998 RMK A01 T02560156  RH  054%=      5-min Rain = 0
KBR1 181350Z 21007KT 26/16 A2998 RMK A01 T02560155  RH  054%=      5-min Rain = 0
KBR1 181351Z 21008KT 26/16 A2998 RMK A01 T02570156  RH  054%=      5-min Rain = 0
KBR1 181352Z 22008KT 26/16 A2998 RMK A01 T02580156  RH  053%=      5-min Rain = 0
KBR1 181353Z 22007KT 26/16 A2998 RMK A01 T02570155  RH  053%=      5-min Rain = 0
KBR1 181354Z 21008KT 26/16 A2998 RMK A01 T02560155  RH  054%=      5-min Rain = 0
KBR1 181355Z 20008KT 26/16 A2998 RMK A01 T02570155  RH  053%=      5-min Rain = 0
KBR1 181356Z 21009KT 26/16 A2998 RMK A01 T02590156  RH  053%=      5-min Rain = 0
KBR1 181357Z 20009KT 26/15 A2998 RMK A01 T02600154  RH  052%=      5-min Rain = 0
KBR1 181358Z 21009KT 26/16 A2998 RMK A01 T02600155  RH  052%=      5-min Rain = 0
KBR1 181359Z 21009KT 26/16 A2998 RMK A01 T02590155  RH  053%=      5-min Rain = 0
KBR1 181400Z 22011KT 26/16 A2998 RMK A01 T02600155  RH  052%=      5-min Rain = 0
KBR1 181401Z 21009KT 26/15 A2998 RMK A01 T02610154  RH  052%=      5-min Rain = 0
KBR1 181402Z 20008KT 26/16 A2998 RMK A01 T02610155  RH  052%=      5-min Rain = 0
KBR1 181403Z 20009KT 26/16 A2998 RMK A01 T02610155  RH  052%=      5-min Rain = 0
KBR1 181404Z 21008KT 26/16 A2998 RMK A01 T02600156  RH  053%=      5-min Rain = 0
KBR1 181405Z 21009KT 26/16 A2998 RMK A01 T02600155  RH  052%=      5-min Rain = 0
KBR1 181406Z 22009KT 26/16 A2998 RMK A01 T02610156  RH  052%=      5-min Rain = 0
KBR1 181407Z 21008KT 26/16 A2998 RMK A01 T02620156  RH  052%=      5-min Rain = 0
KBR1 181408Z 22008KT 26/16 A2998 RMK A01 T02620156  RH  052%=      5-min Rain = 0
KBR1 181409Z 22009KT 26/16 A2998 RMK A01 T02630156  RH  052%=      5-min Rain = 0
KBR1 181410Z 21009KT 26/16 A2998 RMK A01 T02630157  RH  052%=      5-min Rain = 0
KBR1 181411Z 22007KT 26/16 A2998 RMK A01 T02620157  RH  052%=      5-min Rain = 0
KBR1 181412Z 23008KT 26/16 A2998 RMK A01 T02620157  RH  052%=      5-min Rain = 0
KBR1 181413Z 22008KT 26/16 A2998 RMK A01 T02630157  RH  052%=      5-min Rain = 0
KBR1 181414Z 22008KT 26/16 A2998 RMK A01 T02640158  RH  052%=      5-min Rain = 0
KBR1 181415Z 20010KT 27/16 A2998 RMK A01 T02650158  RH  052%=      5-min Rain = 0
KBR1 181416Z 21011KT 27/16 A2998 RMK A01 T02660156  RH  051%=      5-min Rain = 0
KBR1 181417Z 20011KT 27/16 A2997 RMK A01 T02660156  RH  051%=      5-min Rain = 0
KBR1 181418Z 20013KT 27/16 A2997 RMK A01 T02660156  RH  051%=      5-min Rain = 0
KBR1 181419Z 20011KT 27/16 A2997 RMK A01 T02650156  RH  051%=      5-min Rain = 0
KBR1 181420Z 19011KT 26/16 A2997 RMK A01 T02630156  RH  051%=      5-min Rain = 0
KBR1 181421Z 20012KT 26/16 A2997 RMK A01 T02630156  RH  052%=      5-min Rain = 0
KBR1 181422Z 20012KT 26/16 A2997 RMK A01 T02630156  RH  052%=      5-min Rain = 0
KBR1 181423Z 20011KT 26/16 A2997 RMK A01 T02640157  RH  052%=      5-min Rain = 0
KBR1 181424Z 20010G15KT 27/16 A2998 RMK A01 T02650156  RH  051%=      5-min Rain = 0
KBR1 181425Z 21011KT 27/16 A2998 RMK A01 T02650158  RH  052%=      5-min Rain = 0
KBR1 181426Z 21013KT 27/16 A2998 RMK A01 T02660156  RH  051%=      5-min Rain = 0
KBR1 181427Z 21010KT 27/16 A2998 RMK A01 T02650156  RH  051%=      5-min Rain = 0
KBR1 181428Z 22012KT 27/16 A2998 RMK A01 T02660157  RH  051%=      5-min Rain = 0
KBR1 181429Z 21012KT 27/16 A2998 RMK A01 T02660156  RH  051%=      5-min Rain = 0
KBR1 181430Z 21012KT 27/16 A2998 RMK A01 T02670156  RH  051%=      5-min Rain = 0
KBR1 181431Z 21011KT 27/16 A2998 RMK A01 T02670157  RH  051%=      5-min Rain = 0
KBR1 181432Z 21012KT 27/16 A2998 RMK A01 T02670156  RH  051%=      5-min Rain = 0
KBR1 181433Z 21010KT 27/16 A2998 RMK A01 T02660157  RH  051%=      5-min Rain = 0
KBR1 181434Z 21011KT 27/16 A2998 RMK A01 T02660157  RH  051%=      5-min Rain = 0
KBR1 181435Z 21011KT 27/16 A2998 RMK A01 T02660158  RH  051%=      5-min Rain = 0
KBR1 181436Z 21011KT 27/16 A2998 RMK A01 T02660157  RH  051%=      5-min Rain = 0
KBR1 181437Z 21009KT 27/16 A2998 RMK A01 T02660158  RH  052%=      5-min Rain = 0
KBR1 181438Z 20010KT 27/16 A2998 RMK A01 T02670158  RH  051%=      5-min Rain = 0
KBR1 181439Z 20009KT 27/16 A2998 RMK A01 T02680158  RH  051%=      5-min Rain = 0
KBR1 181440Z 20010KT 27/16 A2998 RMK A01 T02690158  RH  050%=      5-min Rain = 0
KBR1 181441Z 21011KT 27/16 A2998 RMK A01 T02690157  RH  050%=      5-min Rain = 0
KBR1 181442Z 20012KT 27/16 A2998 RMK A01 T02690156  RH  050%=      5-min Rain = 0
KBR1 181443Z 20012KT 27/16 A2998 RMK A01 T02680155  RH  050%=      5-min Rain = 0
KBR1 181444Z 21012KT 27/16 A2998 RMK A01 T02680156  RH  050%=      5-min Rain = 0
KBR1 181445Z 21011KT 27/16 A2998 RMK A01 T02680155  RH  050%=      5-min Rain = 0
KBR1 181446Z 21010KT 27/16 A2998 RMK A01 T02690157  RH  050%=      5-min Rain = 0
KBR1 181447Z 22010KT 27/16 A2998 RMK A01 T02710158  RH  050%=      5-min Rain = 0
KBR1 181448Z 21011KT 27/16 A2998 RMK A01 T02730158  RH  049%=      5-min Rain = 0
KBR1 181449Z 20010KT 28/16 A2998 RMK A01 T02750157  RH  049%=      5-min Rain = 0
KBR1 181450Z 21010KT 28/16 A2998 RMK A01 T02750157  RH  049%=      5-min Rain = 0
KBR1 181451Z 22009KT 28/16 A2997 RMK A01 T02760157  RH  048%=      5-min Rain = 0
KBR1 181452Z 22009KT 28/16 A2997 RMK A01 T02760157  RH  048%=      5-min Rain = 0
KBR1 181453Z 21011KT 28/16 A2997 RMK A01 T02760157  RH  048%=      5-min Rain = 0
KBR1 181454Z 22010KT 28/16 A2998 RMK A01 T02750156  RH  048%=      5-min Rain = 0
KBR1 181455Z 21011KT 27/16 A2998 RMK A01 T02740157  RH  049%=      5-min Rain = 0
KBR1 181456Z 21010KT 27/16 A2998 RMK A01 T02730155  RH  049%=      5-min Rain = 0
KBR1 181457Z 21009KT 27/16 A2998 RMK A01 T02710156  RH  049%=      5-min Rain = 0
KBR1 181458Z 21010KT 27/16 A2997 RMK A01 T02720156  RH  049%=      5-min Rain = 0
KBR1 181459Z 22011KT 27/16 A2997 RMK A01 T02730156  RH  049%=      5-min Rain = 0
KBR1 181500Z 22010KT 28/16 A2997 RMK A01 T02750155  RH  048%=      5-min Rain = 0
KBR1 181501Z 22011KT 28/16 A2997 RMK A01 T02750156  RH  048%=      5-min Rain = 0
KBR1 181502Z 22009KT 28/16 A2997 RMK A01 T02760155  RH  048%=      5-min Rain = 0
KBR1 181503Z 23010KT 28/16 A2997 RMK A01 T02750156  RH  048%=      5-min Rain = 0
KBR1 181504Z 22011KT 28/16 A2997 RMK A01 T02780157  RH  048%=      5-min Rain = 0
KBR1 181505Z 22008KT 28/16 A2997 RMK A01 T02780155  RH  047%=      5-min Rain = 0
KBR1 181506Z 22010KT 28/16 A2997 RMK A01 T02770157  RH  048%=      5-min Rain = 0
KBR1 181507Z 23012KT 28/16 A2997 RMK A01 T02770155  RH  047%=      5-min Rain = 0
KBR1 181508Z 22012KT 28/15 A2997 RMK A01 T02770154  RH  047%=      5-min Rain = 0
KBR1 181509Z 22009KT 28/16 A2997 RMK A01 T02760155  RH  048%=      5-min Rain = 0
KBR1 181510Z 21010KT 28/16 A2997 RMK A01 T02760156  RH  048%=      5-min Rain = 0
KBR1 181511Z 21009KT 28/16 A2997 RMK A01 T02770155  RH  047%=      5-min Rain = 0
KBR1 181512Z 20010KT 28/16 A2997 RMK A01 T02760156  RH  048%=      5-min Rain = 0
KBR1 181513Z 21010KT 28/16 A2997 RMK A01 T02770157  RH  048%=      5-min Rain = 0
KBR1 181514Z 20011KT 28/16 A2997 RMK A01 T02780157  RH  048%=      5-min Rain = 0
KBR1 181515Z 21009KT 28/16 A2997 RMK A01 T02790156  RH  047%=      5-min Rain = 0
KBR1 181516Z 21008KT 28/16 A2997 RMK A01 T02780157  RH  048%=      5-min Rain = 0
KBR1 181517Z 22009KT 28/16 A2997 RMK A01 T02780157  RH  048%=      5-min Rain = 0
KBR1 181518Z 23010KT 28/16 A2997 RMK A01 T02810158  RH  047%=      5-min Rain = 0
KBR1 181519Z 23010KT 28/16 A2997 RMK A01 T02830155  RH  046%=      5-min Rain = 0
KBR1 181520Z 23009KT 28/16 A2997 RMK A01 T02810155  RH  046%=      5-min Rain = 0
KBR1 181521Z 24008KT 28/16 A2997 RMK A01 T02790156  RH  047%=      5-min Rain = 0
KBR1 181522Z 24007KT 28/16 A2997 RMK A01 T02790157  RH  047%=      5-min Rain = 0
KBR1 181523Z 22007KT 28/16 A2997 RMK A01 T02800158  RH  048%=      5-min Rain = 0
KBR1 181524Z 22008KT 28/16 A2997 RMK A01 T02820157  RH  047%=      5-min Rain = 0
KBR1 181525Z 22009KT 28/16 A2997 RMK A01 T02830157  RH  046%=      5-min Rain = 0
KBR1 181526Z 21007KT 29/16 A2997 RMK A01 T02850159  RH  046%=      5-min Rain = 0
KBR1 181527Z 23007KT 29/16 A2997 RMK A01 T02880159  RH  046%=      5-min Rain = 0
KBR1 181528Z 24008KT 29/16 A2997 RMK A01 T02890158  RH  045%=      5-min Rain = 0
KBR1 181529Z 25009KT 29/16 A2997 RMK A01 T02890156  RH  044%=      5-min Rain = 0
KBR1 181530Z 24008KT 29/16 A2997 RMK A01 T02870155  RH  045%=      5-min Rain = 0
KBR1 181531Z 24009KT 29/16 A2997 RMK A01 T02850155  RH  045%=      5-min Rain = 0
KBR1 181532Z 23009KT 29/16 A2997 RMK A01 T02850156  RH  045%=      5-min Rain = 0
KBR1 181533Z 24006KT 29/16 A2997 RMK A01 T02870157  RH  045%=      5-min Rain = 0
KBR1 181534Z 24006KT 29/16 A2997 RMK A01 T02890156  RH  045%=      5-min Rain = 0
KBR1 181535Z 21007KT 29/16 A2997 RMK A01 T02870158  RH  046%=      5-min Rain = 0
KBR1 181536Z 23007KT 29/16 A2997 RMK A01 T02870157  RH  045%=      5-min Rain = 0
KBR1 181537Z 20006KT 29/16 A2997 RMK A01 T02890158  RH  045%=      5-min Rain = 0
KBR1 181538Z 21007KT 29/16 A2997 RMK A01 T02920159  RH  045%=      5-min Rain = 0
KBR1 181539Z 21007KT 29/16 A2997 RMK A01 T02920158  RH  044%=      5-min Rain = 0
KBR1 181540Z 20009KT 29/16 A2997 RMK A01 T02900159  RH  045%=      5-min Rain = 0
KBR1 181541Z 23009KT 29/16 A2997 RMK A01 T02900157  RH  045%=      5-min Rain = 0
KBR1 181542Z 23008KT 29/16 A2997 RMK A01 T02900156  RH  044%=      5-min Rain = 0
KBR1 181543Z 23006KT 29/16 A2997 RMK A01 T02890155  RH  044%=      5-min Rain = 0
KBR1 181544Z 24005KT 29/16 A2997 RMK A01 T02880155  RH  044%=      5-min Rain = 0
KBR1 181545Z 21008G13KT 29/16 A2997 RMK A01 T02880155  RH  044%=      5-min Rain = 0
KBR1 181546Z 23009KT 29/16 A2997 RMK A01 T02890155  RH  044%=      5-min Rain = 0
KBR1 181547Z 23008KT 29/16 A2997 RMK A01 T02890156  RH  044%=      5-min Rain = 0
KBR1 181548Z 23007KT 29/16 A2997 RMK A01 T02880155  RH  044%=      5-min Rain = 0
KBR1 181549Z 23005KT 29/16 A2997 RMK A01 T02890157  RH  045%=      5-min Rain = 0
KBR1 181550Z 21007KT 29/16 A2997 RMK A01 T02920157  RH  044%=      5-min Rain = 0
KBR1 181551Z 20007KT 29/15 A2997 RMK A01 T02920154  RH  043%=      5-min Rain = 0
KBR1 181552Z 20007KT 29/16 A2997 RMK A01 T02900155  RH  044%=      5-min Rain = 0
KBR1 181553Z 22007KT 29/16 A2997 RMK A01 T02900155  RH  044%=      5-min Rain = 0
KBR1 181554Z 25004KT 29/15 A2997 RMK A01 T02930154  RH  043%=      5-min Rain = 0
KBR1 181555Z 26004KT 29/15 A2997 RMK A01 T02920154  RH  043%=      5-min Rain = 0
KBR1 181556Z 22007KT 29/16 A2997 RMK A01 T02920155  RH  043%=      5-min Rain = 0
KBR1 181557Z 21005KT 29/15 A2997 RMK A01 T02940154  RH  043%=      5-min Rain = 0
KBR1 181558Z 22009KT 29/15 A2997 RMK A01 T02930153  RH  042%=      5-min Rain = 0
KBR1 181559Z 23007KT 29/15 A2997 RMK A01 T02930150  RH  042%=      5-min Rain = 0
KBR1 181600Z 21006KT 29/15 A2997 RMK A01 T02920151  RH  042%=      5-min Rain = 0
KBR1 181601Z 21006KT 29/15 A2997 RMK A01 T02930151  RH  042%=      5-min Rain = 0
KBR1 181602Z 22007KT 29/15 A2997 RMK A01 T02930152  RH  042%=      5-min Rain = 0
KBR1 181603Z 21005KT 30/16 A2997 RMK A01 T02950155  RH  043%=      5-min Rain = 0
KBR1 181604Z 23007KT 30/16 A2997 RMK A01 T02990157  RH  042%=      5-min Rain = 0
KBR1 181605Z 23005KT 30/16 A2997 RMK A01 T03010155  RH  041%=      5-min Rain = 0
KBR1 181606Z 26004KT 30/16 A2997 RMK A01 T03000158  RH  042%=      5-min Rain = 0
KBR1 181607Z 26007KT 30/16 A2997 RMK A01 T03000156  RH  042%=      5-min Rain = 0
KBR1 181608Z 24005KT 30/16 A2997 RMK A01 T02990155  RH  042%=      5-min Rain = 0
KBR1 181609Z 22007KT 30/16 A2997 RMK A01 T02990156  RH  042%=      5-min Rain = 0
KBR1 181610Z 19009KT 30/16 A2997 RMK A01 T03030155  RH  041%=      5-min Rain = 0
KBR1 181611Z 18006KT 30/15 A2996 RMK A01 T03020154  RH  041%=      5-min Rain = 0
KBR1 181612Z 20007KT 30/15 A2996 RMK A01 T03010154  RH  041%=      5-min Rain = 0
KBR1 181613Z 21006KT 30/15 A2996 RMK A01 T03010151  RH  040%=      5-min Rain = 0
KBR1 181614Z 21007KT 30/15 A2996 RMK A01 T03000150  RH  040%=      5-min Rain = 0
KBR1 181615Z 20006KT 30/15 A2996 RMK A01 T03010146  RH  039%=      5-min Rain = 0
KBR1 181616Z 20008KT 30/15 A2996 RMK A01 T03000150  RH  040%=      5-min Rain = 0
KBR1 181617Z 20004KT 30/15 A2996 RMK A01 T03010151  RH  040%=      5-min Rain = 0
KBR1 181618Z 22005KT 30/15 A2996 RMK A01 T03010151  RH  040%=      5-min Rain = 0
KBR1 181619Z 21005KT 30/15 A2996 RMK A01 T03000150  RH  040%=      5-min Rain = 0
KBR1 181620Z 22007KT 30/15 A2996 RMK A01 T03000152  RH  041%=      5-min Rain = 0
KBR1 181621Z 22006KT 30/16 A2996 RMK A01 T03020155  RH  041%=      5-min Rain = 0
KBR1 181622Z 21007KT 31/15 A2996 RMK A01 T03050154  RH  040%=      5-min Rain = 0
KBR1 181623Z 22008KT 31/15 A2996 RMK A01 T03060152  RH  039%=      5-min Rain = 0
KBR1 181624Z 22008KT 31/15 A2996 RMK A01 T03060151  RH  039%=      5-min Rain = 0
KBR1 181625Z 22006KT 31/15 A2996 RMK A01 T03050151  RH  039%=      5-min Rain = 0
KBR1 181626Z 22005KT 30/15 A2996 RMK A01 T03040154  RH  040%=      5-min Rain = 0
KBR1 181627Z 22005KT 31/15 A2996 RMK A01 T03060151  RH  039%=      5-min Rain = 0
KBR1 181628Z 22004KT 31/15 A2996 RMK A01 T03060152  RH  039%=      5-min Rain = 0
KBR1 181629Z 21004KT 31/15 A2996 RMK A01 T03050149  RH  039%=      5-min Rain = 0
KBR1 181630Z 22004KT 30/15 A2996 RMK A01 T03040151  RH  039%=      5-min Rain = 0
KBR1 181631Z 20007KT 30/15 A2996 RMK A01 T03030152  RH  040%=      5-min Rain = 0
KBR1 181632Z 23008KT 31/15 A2996 RMK A01 T03050154  RH  040%=      5-min Rain = 0
KBR1 181633Z 22009KT 31/15 A2996 RMK A01 T03080153  RH  039%=      5-min Rain = 0
KBR1 181634Z 23008KT 31/15 A2996 RMK A01 T03090151  RH  038%=      5-min Rain = 0
KBR1 181635Z 25005KT 31/15 A2996 RMK A01 T03060150  RH  039%=      5-min Rain = 0
KBR1 181636Z 22007KT 31/15 A2996 RMK A01 T03050153  RH  040%=      5-min Rain = 0
KBR1 181637Z 23009KT 31/15 A2996 RMK A01 T03090151  RH  039%=      5-min Rain = 0
KBR1 181638Z 22006KT 31/15 A2996 RMK A01 T03080150  RH  038%=      5-min Rain = 0
KBR1 181639Z 24006KT 31/15 A2996 RMK A01 T03080152  RH  039%=      5-min Rain = 0
KBR1 181640Z 22005KT 31/15 A2996 RMK A01 T03080151  RH  039%=      5-min Rain = 0
KBR1 181641Z 20003KT 31/15 A2996 RMK A01 T03080150  RH  038%=      5-min Rain = 0
KBR1 181642Z 22004KT 31/15 A2996 RMK A01 T03080152  RH  039%=      5-min Rain = 0
KBR1 181643Z 22005KT 31/15 A2996 RMK A01 T03100152  RH  038%=      5-min Rain = 0
KBR1 181644Z 20004KT 31/15 A2996 RMK A01 T03100151  RH  038%=      5-min Rain = 0
KBR1 181645Z 21006KT 31/15 A2996 RMK A01 T03100150  RH  038%=      5-min Rain = 0
KBR1 181646Z 23006KT 31/15 A2996 RMK A01 T03120151  RH  038%=      5-min Rain = 0
KBR1 181647Z 25006KT 31/15 A2996 RMK A01 T03130149  RH  037%=      5-min Rain = 0
KBR1 181648Z 21003KT 31/15 A2996 RMK A01 T03110150  RH  038%=      5-min Rain = 0
KBR1 181649Z 16003KT 31/15 A2996 RMK A01 T03130150  RH  037%=      5-min Rain = 0
KBR1 181650Z 18003KT 31/15 A2996 RMK A01 T03140149  RH  037%=      5-min Rain = 0
KBR1 181651Z 16004KT 31/15 A2996 RMK A01 T03130149  RH  037%=      5-min Rain = 0
KBR1 181652Z 18003KT 31/15 A2996 RMK A01 T03130148  RH  037%=      5-min Rain = 0
KBR1 181653Z 19006KT 31/15 A2996 RMK A01 T03120148  RH  037%=      5-min Rain = 0
KBR1 181654Z 16006KT 31/15 A2996 RMK A01 T03140150  RH  037%=      5-min Rain = 0
KBR1 181655Z 16004KT 32/15 A2996 RMK A01 T03160149  RH  036%=      5-min Rain = 0
KBR1 181656Z 18004KT 32/15 A2996 RMK A01 T03150147  RH  036%=      5-min Rain = 0
KBR1 181657Z 24004KT 32/15 A2996 RMK A01 T03160149  RH  036%=      5-min Rain = 0
KBR1 181658Z 25004KT 32/15 A2996 RMK A01 T03170147  RH  036%=      5-min Rain = 0
KBR1 181659Z 24005KT 32/15 A2996 RMK A01 T03150148  RH  036%=      5-min Rain = 0
KBR1 181700Z 20007KT 32/15 A2996 RMK A01 T03150148  RH  036%=      5-min Rain = 0
KBR1 181701Z 20005KT 32/15 A2996 RMK A01 T03150146  RH  036%=      5-min Rain = 0
KBR1 181702Z 16003KT 31/15 A2996 RMK A01 T03130148  RH  037%=      5-min Rain = 0
KBR1 181703Z 18002KT 32/15 A2996 RMK A01 T03150147  RH  036%=      5-min Rain = 0
KBR1 181704Z 17004KT 32/15 A2996 RMK A01 T03170147  RH  036%=      5-min Rain = 0
KBR1 181705Z 16004KT 32/15 A2996 RMK A01 T03190146  RH  035%=      5-min Rain = 0
KBR1 181706Z 21004KT 32/15 A2996 RMK A01 T03180146  RH  035%=      5-min Rain = 0
KBR1 181707Z 23005KT 32/15 A2996 RMK A01 T03190147  RH  035%=      5-min Rain = 0
KBR1 181708Z 23005KT 32/15 A2996 RMK A01 T03210147  RH  035%=      5-min Rain = 0
KBR1 181709Z 24003KT 32/15 A2996 RMK A01 T03200146  RH  035%=      5-min Rain = 0
KBR1 181710Z 25003KT 32/15 A2996 RMK A01 T03170146  RH  035%=      5-min Rain = 0
KBR1 181711Z 18004KT 32/15 A2995 RMK A01 T03190147  RH  036%=      5-min Rain = 0
KBR1 181712Z 17004KT 32/15 A2995 RMK A01 T03210148  RH  035%=      5-min Rain = 0
KBR1 181713Z 21007KT 33/15 A2995 RMK A01 T03260150  RH  035%=      5-min Rain = 0
KBR1 181714Z 21008KT 33/15 A2995 RMK A01 T03270146  RH  034%=      5-min Rain = 0
KBR1 181715Z 20005KT 32/15 A2996 RMK A01 T03230145  RH  034%=      5-min Rain = 0
KBR1 181716Z 22004KT 32/15 A2996 RMK A01 T03220146  RH  035%=      5-min Rain = 0
KBR1 181717Z 24004KT 32/15 A2996 RMK A01 T03220145  RH  034%=      5-min Rain = 0
KBR1 181718Z 23004KT 32/14 A2996 RMK A01 T03220144  RH  034%=      5-min Rain = 0
KBR1 181719Z 25003KT 32/14 A2996 RMK A01 T03220144  RH  034%=      5-min Rain = 0
KBR1 181720Z 26001KT 32/14 A2995 RMK A01 T03220142  RH  034%=      5-min Rain = 0
KBR1 181721Z 31001KT 32/14 A2995 RMK A01 T03220142  RH  034%=      5-min Rain = 0
KBR1 181722Z 24003KT 32/14 A2995 RMK A01 T03220143  RH  034%=      5-min Rain = 0
KBR1 181723Z 24004KT 33/14 A2995 RMK A01 T03250144  RH  033%=      5-min Rain = 0
KBR1 181724Z 25003KT 33/14 A2995 RMK A01 T03270142  RH  033%=      5-min Rain = 0
KBR1 181725Z 26003KT 33/14 A2995 RMK A01 T03270141  RH  032%=      5-min Rain = 0
KBR1 181726Z 22002KT 33/14 A2995 RMK A01 T03260139  RH  032%=      5-min Rain = 0
KBR1 181727Z 25002KT 33/14 A2995 RMK A01 T03250138  RH  032%=      5-min Rain = 0
KBR1 181728Z 29002KT 33/14 A2995 RMK A01 T03250138  RH  032%=      5-min Rain = 0
KBR1 181729Z 31003KT 33/14 A2995 RMK A01 T03250139  RH  033%=      5-min Rain = 0
KBR1 181730Z 34002KT 33/14 A2995 RMK A01 T03270142  RH  033%=      5-min Rain = 0
KBR1 181731Z 16004KT 33/14 A2995 RMK A01 T03310143  RH  032%=      5-min Rain = 0
KBR1 181732Z 16004KT 33/14 A2995 RMK A01 T03320142  RH  032%=      5-min Rain = 0
KBR1 181733Z 20004KT 33/14 A2995 RMK A01 T03310142  RH  032%=      5-min Rain = 0
KBR1 181734Z 23003KT 33/14 A2995 RMK A01 T03320141  RH  032%=      5-min Rain = 0
KBR1 181735Z 19004KT 33/14 A2995 RMK A01 T03330142  RH  032%=      5-min Rain = 0
KBR1 181736Z 18007KT 33/14 A2995 RMK A01 T03340140  RH  031%=      5-min Rain = 0
KBR1 181737Z 17005KT 33/14 A2995 RMK A01 T03330139  RH  031%=      5-min Rain = 0
KBR1 181738Z 14003KT 33/14 A2995 RMK A01 T03320140  RH  031%=      5-min Rain = 0
KBR1 181739Z 22003KT 33/14 A2995 RMK A01 T03340142  RH  031%=      5-min Rain = 0
KBR1 181740Z 22006KT 34/14 A2995 RMK A01 T03360144  RH  031%=      5-min Rain = 0
KBR1 181741Z 23005KT 34/14 A2995 RMK A01 T03370139  RH  030%=      5-min Rain = 0
KBR1 181742Z 22005KT 33/14 A2995 RMK A01 T03340139  RH  031%=      5-min Rain = 0
KBR1 181743Z 20003KT 34/14 A2994 RMK A01 T03350142  RH  031%=      5-min Rain = 0
KBR1 181744Z 20004KT 34/14 A2994 RMK A01 T03390139  RH  030%=      5-min Rain = 0
KBR1 181745Z 18005KT 34/14 A2994 RMK A01 T03400141  RH  030%=      5-min Rain = 0
KBR1 181746Z 18005KT 34/14 A2994 RMK A01 T03410141  RH  030%=      5-min Rain = 0
KBR1 181747Z 16005KT 34/14 A2994 RMK A01 T03420136  RH  029%=      5-min Rain = 0
KBR1 181748Z 16006KT 34/14 A2994 RMK A01 T03410135  RH  029%=      5-min Rain = 0
KBR1 181749Z 16003KT 34/14 A2994 RMK A01 T03400135  RH  029%=      5-min Rain = 0
KBR1 181750Z 14002KT 34/13 A2994 RMK A01 T03400134  RH  029%=      5-min Rain = 0
KBR1 181751Z 14002KT 34/14 A2994 RMK A01 T03420137  RH  029%=      5-min Rain = 0
KBR1 181752Z 10005KT 34/14 A2994 RMK A01 T03440135  RH  028%=      5-min Rain = 0
KBR1 181753Z 15005KT 34/14 A2994 RMK A01 T03440135  RH  028%=      5-min Rain = 0
KBR1 181754Z 15006KT 35/13 A2994 RMK A01 T03450133  RH  028%=      5-min Rain = 0
KBR1 181755Z 15005KT 35/13 A2994 RMK A01 T03450129  RH  027%=      5-min Rain = 0
KBR1 181756Z 15004KT 34/13 A2994 RMK A01 T03420127  RH  027%=      5-min Rain = 0
KBR1 181757Z 15003KT 34/13 A2994 RMK A01 T03410128  RH  028%=      5-min Rain = 0
KBR1 181758Z 19001KT 34/13 A2994 RMK A01 T03410131  RH  028%=      5-min Rain = 0
KBR1 181759Z 17004KT 34/14 A2994 RMK A01 T03430140  RH  029%=      5-min Rain = 0
KBR1 181800Z 16006KT 35/14 A2994 RMK A01 T03460139  RH  029%=      5-min Rain = 0
KBR1 181801Z 12005KT 35/14 A2994 RMK A01 T03470138  RH  028%=      5-min Rain = 0
KBR1 181802Z 11005KT 35/14 A2994 RMK A01 T03460135  RH  028%=      5-min Rain = 0
KBR1 181803Z 08005KT 35/14 A2994 RMK A01 T03450135  RH  028%=      5-min Rain = 0
KBR1 181804Z 08004KT 35/14 A2994 RMK A01 T03460135  RH  028%=      5-min Rain = 0
KBR1 181805Z 12002KT 35/14 A2994 RMK A01 T03450136  RH  028%=      5-min Rain = 0
KBR1 181806Z 17006KT 35/14 A2994 RMK A01 T03460137  RH  028%=      5-min Rain = 0
KBR1 181807Z 16007KT 35/14 A2994 RMK A01 T03470137  RH  028%=      5-min Rain = 0
KBR1 181808Z 14009KT 34/14 A2994 RMK A01 T03440138  RH  029%=      5-min Rain = 0
KBR1 181809Z 13005KT 35/14 A2994 RMK A01 T03450135  RH  028%=      5-min Rain = 0
KBR1 181810Z 14007KT 34/14 A2994 RMK A01 T03440136  RH  029%=      5-min Rain = 0
KBR1 181811Z 13006KT 34/14 A2994 RMK A01 T03440135  RH  028%=      5-min Rain = 0
KBR1 181812Z 16005KT 34/14 A2994 RMK A01 T03440136  RH  029%=      5-min Rain = 0
KBR1 181813Z 19006KT 35/14 A2993 RMK A01 T03470140  RH  029%=      5-min Rain = 0
KBR1 181814Z 18009KT 35/14 A2993 RMK A01 T03530142  RH  028%=      5-min Rain = 0
KBR1 181815Z 19008KT 35/14 A2993 RMK A01 T03540139  RH  028%=      5-min Rain = 0
KBR1 181816Z 20006KT 35/14 A2993 RMK A01 T03520138  RH  028%=      5-min Rain = 0
KBR1 181817Z 18004KT 35/14 A2993 RMK A01 T03500136  RH  028%=      5-min Rain = 0
KBR1 181818Z 19002KT 35/14 A2993 RMK A01 T03480137  RH  028%=      5-min Rain = 0
KBR1 181819Z 18005KT 35/14 A2993 RMK A01 T03470135  RH  028%=      5-min Rain = 0
KBR1 181820Z 16007KT 35/14 A2993 RMK A01 T03480135  RH  028%=      5-min Rain = 0
KBR1 181821Z 16006KT 35/14 A2993 RMK A01 T03530137  RH  027%=      5-min Rain = 0
KBR1 181822Z 17004KT 35/13 A2993 RMK A01 T03520134  RH  027%=      5-min Rain = 0
KBR1 181823Z 19003KT 35/13 A2993 RMK A01 T03500133  RH  027%=      5-min Rain = 0
KBR1 181824Z 18004KT 35/13 A2993 RMK A01 T03500132  RH  027%=      5-min Rain = 0
KBR1 181825Z 18010KT 35/14 A2993 RMK A01 T03530136  RH  027%=      5-min Rain = 0
KBR1 181826Z 18008KT 36/13 A2993 RMK A01 T03550133  RH  026%=      5-min Rain = 0
KBR1 181827Z 17007KT 35/13 A2993 RMK A01 T03530134  RH  027%=      5-min Rain = 0
KBR1 181828Z 18007KT 35/13 A2993 RMK A01 T03540130  RH  026%=      5-min Rain = 0
KBR1 181829Z 16002KT 35/13 A2993 RMK A01 T03510130  RH  027%=      5-min Rain = 0
KBR1 181830Z 09000KT 35/13 A2993 RMK A01 T03500130  RH  027%=      5-min Rain = 0
KBR1 181831Z 17007KT 35/13 A2993 RMK A01 T03510132  RH  027%=      5-min Rain = 0
KBR1 181832Z 15009KT 35/13 A2993 RMK A01 T03530132  RH  027%=      5-min Rain = 0
KBR1 181833Z 13007KT 35/13 A2993 RMK A01 T03540132  RH  026%=      5-min Rain = 0
KBR1 181834Z 14010KT 36/13 A2993 RMK A01 T03550133  RH  026%=      5-min Rain = 0
KBR1 181835Z 12007KT 35/13 A2993 RMK A01 T03540130  RH  026%=      5-min Rain = 0
KBR1 181836Z 12008KT 35/13 A2993 RMK A01 T03530133  RH  027%=      5-min Rain = 0
KBR1 181837Z 12008KT 36/13 A2993 RMK A01 T03560132  RH  026%=      5-min Rain = 0
KBR1 181838Z 13009KT 36/13 A2993 RMK A01 T03580131  RH  026%=      5-min Rain = 0
KBR1 181839Z 12008KT 36/13 A2993 RMK A01 T03560132  RH  026%=      5-min Rain = 0
KBR1 181840Z 10005KT 35/13 A2993 RMK A01 T03540132  RH  026%=      5-min Rain = 0
KBR1 181841Z 12005KT 35/13 A2993 RMK A01 T03540131  RH  026%=      5-min Rain = 0
KBR1 181842Z 16002KT 35/13 A2993 RMK A01 T03530131  RH  026%=      5-min Rain = 0
KBR1 181843Z 16004KT 35/13 A2993 RMK A01 T03520128  RH  026%=      5-min Rain = 0
KBR1 181844Z 15003KT 35/13 A2992 RMK A01 T03540126  RH  025%=      5-min Rain = 0
KBR1 181845Z 18004KT 35/13 A2992 RMK A01 T03540128  RH  026%=      5-min Rain = 0
KBR1 181846Z 21005KT 36/13 A2992 RMK A01 T03560133  RH  026%=      5-min Rain = 0
KBR1 181847Z 14004KT 36/14 A2992 RMK A01 T03590135  RH  026%=      5-min Rain = 0
KBR1 181848Z 14004KT 36/14 A2992 RMK A01 T03600135  RH  026%=      5-min Rain = 0
KBR1 181849Z 13008KT 36/14 A2992 RMK A01 T03620136  RH  026%=      5-min Rain = 0
KBR1 181850Z 13008KT 36/14 A2992 RMK A01 T03620135  RH  026%=      5-min Rain = 0
KBR1 181851Z 13007KT 36/14 A2992 RMK A01 T03610136  RH  026%=      5-min Rain = 0
KBR1 181852Z 14006KT 36/13 A2992 RMK A01 T03630133  RH  025%=      5-min Rain = 0
KBR1 181853Z 15007KT 36/13 A2992 RMK A01 T03600131  RH  025%=      5-min Rain = 0
KBR1 181854Z 18009KT 36/13 A2992 RMK A01 T03610131  RH  025%=      5-min Rain = 0
KBR1 181855Z 18007KT 36/13 A2992 RMK A01 T03580128  RH  025%=      5-min Rain = 0
KBR1 181856Z 16009KT 36/13 A2992 RMK A01 T03570131  RH  026%=      5-min Rain = 0
KBR1 181857Z 16009KT 36/13 A2992 RMK A01 T03610128  RH  025%=      5-min Rain = 0
KBR1 181858Z 17007KT 36/13 A2992 RMK A01 T03610125  RH  024%=      5-min Rain = 0
KBR1 181859Z 19008KT 36/13 A2992 RMK A01 T03610129  RH  025%=      5-min Rain = 0
KBR1 181900Z 22004KT 36/13 A2992 RMK A01 T03600126  RH  025%=      5-min Rain = 0
KBR1 181901Z 20004KT 36/13 A2992 RMK A01 T03600127  RH  025%=      5-min Rain = 0
KBR1 181902Z 15008KT 36/13 A2992 RMK A01 T03620129  RH  025%=      5-min Rain = 0
KBR1 181903Z 15008KT 37/13 A2992 RMK A01 T03650125  RH  024%=      5-min Rain = 0
KBR1 181904Z 16008KT 37/13 A2992 RMK A01 T03660125  RH  024%=      5-min Rain = 0
KBR1 181905Z 14006KT 37/12 A2992 RMK A01 T03650124  RH  024%=      5-min Rain = 0
KBR1 181906Z 14008KT 36/12 A2992 RMK A01 T03620121  RH  024%=      5-min Rain = 0
KBR1 181907Z 13006KT 36/12 A2992 RMK A01 T03610122  RH  024%=      5-min Rain = 0
KBR1 181908Z 15004KT 36/12 A2992 RMK A01 T03620120  RH  023%=      5-min Rain = 0
KBR1 181909Z 16006KT 36/12 A2992 RMK A01 T03610121  RH  024%=      5-min Rain = 0
KBR1 181910Z 13008KT 36/12 A2992 RMK A01 T03610120  RH  023%=      5-min Rain = 0
KBR1 181911Z 11007KT 36/12 A2992 RMK A01 T03630121  RH  023%=      5-min Rain = 0
KBR1 181912Z 14005KT 37/12 A2992 RMK A01 T03650119  RH  023%=      5-min Rain = 0
KBR1 181913Z 16008KT 37/12 A2992 RMK A01 T03660119  RH  023%=      5-min Rain = 0
KBR1 181914Z 17007KT 37/12 A2992 RMK A01 T03670117  RH  022%=      5-min Rain = 0
KBR1 181915Z 16003KT 36/12 A2992 RMK A01 T03640118  RH  023%=      5-min Rain = 0
KBR1 181916Z 13000KT 36/12 A2992 RMK A01 T03630117  RH  023%=      5-min Rain = 0
KBR1 181917Z 21003KT 36/12 A2992 RMK A01 T03630116  RH  023%=      5-min Rain = 0
KBR1 181918Z 20004KT 36/11 A2992 RMK A01 T03640111  RH  022%=      5-min Rain = 0
KBR1 181919Z 20006KT 36/12 A2991 RMK A01 T03630121  RH  023%=      5-min Rain = 0
KBR1 181920Z 21006KT 37/12 A2991 RMK A01 T03650123  RH  023%=      5-min Rain = 0
KBR1 181921Z 18005KT 36/12 A2991 RMK A01 T03640123  RH  024%=      5-min Rain = 0
KBR1 181922Z 19003KT 36/12 A2991 RMK A01 T03630123  RH  024%=      5-min Rain = 0
KBR1 181923Z 18009KT 36/12 A2991 RMK A01 T03630124  RH  024%=      5-min Rain = 0
KBR1 181924Z 18008KT 36/13 A2991 RMK A01 T03640126  RH  024%=      5-min Rain = 0
KBR1 181925Z 18008KT 37/13 A2991 RMK A01 T03650125  RH  024%=      5-min Rain = 0
KBR1 181926Z 20007KT 37/12 A2991 RMK A01 T03650124  RH  024%=      5-min Rain = 0
KBR1 181927Z 21005KT 36/13 A2991 RMK A01 T03640126  RH  024%=      5-min Rain = 0
KBR1 181928Z 20004KT 36/13 A2991 RMK A01 T03640125  RH  024%=      5-min Rain = 0
KBR1 181929Z 18004KT 37/12 A2991 RMK A01 T03660124  RH  023%=      5-min Rain = 0
KBR1 181930Z 15008KT 37/13 A2991 RMK A01 T03670125  RH  024%=      5-min Rain = 0
KBR1 181931Z 14010KT 37/13 A2991 RMK A01 T03710126  RH  023%=      5-min Rain = 0
KBR1 181932Z 14011KT 37/13 A2991 RMK A01 T03710126  RH  023%=      5-min Rain = 0
KBR1 181933Z 14010KT 37/12 A2991 RMK A01 T03700123  RH  023%=      5-min Rain = 0
KBR1 181934Z 15007KT 37/12 A2991 RMK A01 T03690119  RH  022%=      5-min Rain = 0
KBR1 181935Z 14006KT 37/12 A2991 RMK A01 T03670118  RH  022%=      5-min Rain = 0
KBR1 181936Z 12008KT 37/12 A2991 RMK A01 T03660120  RH  023%=      5-min Rain = 0
KBR1 181937Z 12007KT 37/12 A2991 RMK A01 T03660119  RH  023%=      5-min Rain = 0
KBR1 181938Z 17007KT 37/13 A2991 RMK A01 T03700125  RH  023%=      5-min Rain = 0
KBR1 181939Z 18003KT 37/12 A2991 RMK A01 T03720124  RH  023%=      5-min Rain = 0
KBR1 181940Z 18005KT 37/12 A2991 RMK A01 T03720124  RH  023%=      5-min Rain = 0
KBR1 181941Z 18007KT 37/12 A2991 RMK A01 T03710124  RH  023%=      5-min Rain = 0
KBR1 181942Z 16005KT 37/12 A2991 RMK A01 T03700122  RH  023%=      5-min Rain = 0
KBR1 181943Z 17004KT 37/12 A2991 RMK A01 T03670123  RH  023%=      5-min Rain = 0
KBR1 181944Z 13001KT 37/13 A2991 RMK A01 T03660128  RH  024%=      5-min Rain = 0
KBR1 181945Z 13005KT 37/13 A2991 RMK A01 T03680128  RH  024%=      5-min Rain = 0
KBR1 181946Z 17003KT 37/13 A2991 RMK A01 T03690126  RH  023%=      5-min Rain = 0
KBR1 181947Z 21004KT 37/12 A2991 RMK A01 T03690124  RH  023%=      5-min Rain = 0
KBR1 181948Z 18005KT 37/12 A2991 RMK A01 T03690123  RH  023%=      5-min Rain = 0
KBR1 181949Z 17010KT 37/12 A2991 RMK A01 T03710123  RH  023%=      5-min Rain = 0
KBR1 181950Z 18006KT 37/12 A2991 RMK A01 T03710122  RH  022%=      5-min Rain = 0
KBR1 181951Z 14005KT 37/13 A299 RMK A01 T03730127  RH  023%=      5-min Rain = 0
KBR1 181952Z 15003KT 37/12 A299 RMK A01 T03740122  RH  022%=      5-min Rain = 0
KBR1 181953Z 11004KT 37/12 A299 RMK A01 T03730123  RH  022%=      5-min Rain = 0
KBR1 181954Z 12002KT 37/12 A299 RMK A01 T03730122  RH  022%=      5-min Rain = 0
KBR1 181955Z 13006KT 37/13 A299 RMK A01 T03710125  RH  023%=      5-min Rain = 0
KBR1 181956Z 17009KT 37/13 A299 RMK A01 T03720125  RH  023%=      5-min Rain = 0
KBR1 181957Z 17006KT 37/12 A299 RMK A01 T03720121  RH  022%=      5-min Rain = 0
KBR1 181958Z 18008KT 37/12 A299 RMK A01 T03710123  RH  023%=      5-min Rain = 0
KBR1 181959Z 18011KT 38/13 A299 RMK A01 T03750126  RH  023%=      5-min Rain = 0
KBR1 182000Z 18010KT 38/13 A299 RMK A01 T03760126  RH  023%=      5-min Rain = 0
KBR1 182001Z 18006KT 38/13 A299 RMK A01 T03760125  RH  022%=      5-min Rain = 0
KBR1 182002Z 18007KT 38/13 A299 RMK A01 T03760129  RH  023%=      5-min Rain = 0
KBR1 182003Z 19010KT 38/13 A299 RMK A01 T03820126  RH  022%=      5-min Rain = 0
KBR1 182004Z 21007KT 38/12 A299 RMK A01 T03800124  RH  022%=      5-min Rain = 0
KBR1 182005Z 21005KT 38/12 A299 RMK A01 T03790122  RH  022%=      5-min Rain = 0
KBR1 182006Z 20004KT 38/12 A299 RMK A01 T03780124  RH  022%=      5-min Rain = 0
KBR1 182007Z 16008KT 38/13 A299 RMK A01 T03790126  RH  022%=      5-min Rain = 0
KBR1 182008Z 16008KT 38/12 A299 RMK A01 T03800123  RH  022%=      5-min Rain = 0
KBR1 182009Z 16007KT 38/12 A299 RMK A01 T03780122  RH  022%=      5-min Rain = 0
KBR1 182010Z 17010KT 38/12 A299 RMK A01 T03770121  RH  022%=      5-min Rain = 0
KBR1 182011Z 19009KT 38/12 A299 RMK A01 T03750118  RH  021%=      5-min Rain = 0
KBR1 182012Z 18011KT 37/12 A299 RMK A01 T03740122  RH  022%=      5-min Rain = 0
KBR1 182013Z 17005G13KT 38/12 A299 RMK A01 T03780120  RH  021%=      5-min Rain = 0
KBR1 182014Z 18004KT 38/12 A299 RMK A01 T03760119  RH  021%=      5-min Rain = 0
KBR1 182015Z 19010KT 38/13 A299 RMK A01 T03780125  RH  022%=      5-min Rain = 0
KBR1 182016Z 19010KT 38/12 A299 RMK A01 T03800119  RH  021%=      5-min Rain = 0
KBR1 182017Z 19004KT 38/11 A299 RMK A01 T03760112  RH  021%=      5-min Rain = 0
KBR1 182018Z 17009KT 37/12 A299 RMK A01 T03730117  RH  022%=      5-min Rain = 0
KBR1 182019Z 17008KT 38/12 A299 RMK A01 T03770118  RH  021%=      5-min Rain = 0
KBR1 182020Z 19007KT 38/12 A299 RMK A01 T03810118  RH  021%=      5-min Rain = 0
KBR1 182021Z 16011KT 38/12 A299 RMK A01 T03800118  RH  021%=      5-min Rain = 0
KBR1 182022Z 16007KT 38/12 A299 RMK A01 T03780115  RH  021%=      5-min Rain = 0
KBR1 182023Z 16006KT 38/11 A299 RMK A01 T03760114  RH  021%=      5-min Rain = 0
KBR1 182024Z 19007G15KT 38/11 A299 RMK A01 T03750113  RH  021%=      5-min Rain = 0
KBR1 182025Z 21012KT 38/12 A299 RMK A01 T03780115  RH  021%=      5-min Rain = 0
KBR1 182026Z 17008KT 38/11 A299 RMK A01 T03770109  RH  020%=      5-min Rain = 0
KBR1 182027Z 20009KT 38/11 A299 RMK A01 T03760110  RH  020%=      5-min Rain = 0
KBR1 182028Z 22009KT 38/12 A299 RMK A01 T03830116  RH  020%=      5-min Rain = 0
KBR1 182029Z 20010KT 39/11 A299 RMK A01 T03860109  RH  019%=      5-min Rain = 0
KBR1 182030Z 20011KT 38/10 A299 RMK A01 T03830099  RH  018%=      5-min Rain = 0
KBR1 182031Z 21010KT 38/10 A2989 RMK A01 T03810098  RH  018%=      5-min Rain = 0
KBR1 182032Z 21010KT 38/10 A2989 RMK A01 T03810099  RH  018%=      5-min Rain = 0
KBR1 182033Z 20011KT 38/10 A2989 RMK A01 T03820103  RH  019%=      5-min Rain = 0
KBR1 182034Z 22009KT 39/10 A299 RMK A01 T03850101  RH  018%=      5-min Rain = 0
KBR1 182035Z 22007KT 38/10 A299 RMK A01 T03820102  RH  019%=      5-min Rain = 0
KBR1 182036Z 23004KT 38/10 A2989 RMK A01 T03800104  RH  019%=      5-min Rain = 0
KBR1 182037Z 24006KT 38/11 A2989 RMK A01 T03790105  RH  019%=      5-min Rain = 0
KBR1 182038Z 22004KT 38/10 A2989 RMK A01 T03780101  RH  019%=      5-min Rain = 0
KBR1 182039Z 20000KT 38/10 A2989 RMK A01 T03760103  RH  019%=      5-min Rain = 0
KBR1 182040Z 04000KT 38/11 A2989 RMK A01 T03790106  RH  019%=      5-min Rain = 0
KBR1 182041Z 21006G11KT 38/11 A2989 RMK A01 T03820110  RH  020%=      5-min Rain = 0
KBR1 182042Z 21012KT 38/11 A2989 RMK A01 T03840110  RH  019%=      5-min Rain = 0
KBR1 182043Z 21010KT 39/10 A2989 RMK A01 T03850102  RH  018%=      5-min Rain = 0
KBR1 182044Z 23007KT 38/10 A2989 RMK A01 T03830098  RH  018%=      5-min Rain = 0
KBR1 182045Z 23006KT 38/11 A2989 RMK A01 T03830105  RH  019%=      5-min Rain = 0
KBR1 182046Z 19007KT 39/11 A2989 RMK A01 T03850105  RH  019%=      5-min Rain = 0
KBR1 182047Z 14008KT 39/10 A2989 RMK A01 T03860096  RH  017%=      5-min Rain = 0
KBR1 182048Z 16009KT 38/09 A2989 RMK A01 T03840093  RH  017%=      5-min Rain = 0
KBR1 182049Z 17006G11KT 38/09 A2989 RMK A01 T03820092  RH  017%=      5-min Rain = 0
KBR1 182050Z 17009KT 38/10 A2989 RMK A01 T03840098  RH  018%=      5-min Rain = 0
KBR1 182051Z 17010KT 39/10 A2989 RMK A01 T03850102  RH  018%=      5-min Rain = 0
KBR1 182052Z 20009KT 39/11 A2989 RMK A01 T03880108  RH  019%=      5-min Rain = 0
KBR1 182053Z 22005KT 39/11 A2989 RMK A01 T03870110  RH  019%=      5-min Rain = 0
KBR1 182054Z 22008KT 39/11 A2989 RMK A01 T03870114  RH  020%=      5-min Rain = 0
KBR1 182055Z 24007KT 39/11 A2989 RMK A01 T03880114  RH  019%=      5-min Rain = 0
KBR1 182056Z 21006KT 39/12 A2989 RMK A01 T03860115  RH  020%=      5-min Rain = 0
KBR1 182057Z 21010G15KT 39/12 A2989 RMK A01 T03890118  RH  020%=      5-min Rain = 0
KBR1 182058Z 21011KT 39/12 A2989 RMK A01 T03920117  RH  019%=      5-min Rain = 0
KBR1 182059Z 21010KT 39/12 A2989 RMK A01 T03900115  RH  019%=      5-min Rain = 0
KBR1 182100Z 22006KT 39/11 A2989 RMK A01 T03870113  RH  020%=      5-min Rain = 0
KBR1 182101Z 21005KT 39/12 A2989 RMK A01 T03850115  RH  020%=      5-min Rain = 0
KBR1 182102Z 20007KT 39/11 A2988 RMK A01 T03850114  RH  020%=      5-min Rain = 0
KBR1 182103Z 22012KT 39/12 A2988 RMK A01 T03880115  RH  020%=      5-min Rain = 0
KBR1 182104Z 19011KT 40/12 A2988 RMK A01 T03950117  RH  019%=      5-min Rain = 0
KBR1 182105Z 18013KT 40/12 A2988 RMK A01 T03960120  RH  019%=      5-min Rain = 0
KBR1 182106Z 18011KT 39/12 A2988 RMK A01 T03930117  RH  019%=      5-min Rain = 0
KBR1 182107Z 18007KT 39/12 A2988 RMK A01 T03880119  RH  020%=      5-min Rain = 0
KBR1 182108Z 16006KT 39/12 A2988 RMK A01 T03890117  RH  020%=      5-min Rain = 0
KBR1 182109Z 19005KT 39/12 A2988 RMK A01 T03880116  RH  020%=      5-min Rain = 0
KBR1 182110Z 23007KT 39/11 A2988 RMK A01 T03890112  RH  019%=      5-min Rain = 0
KBR1 182111Z 22007KT 39/11 A2988 RMK A01 T03890108  RH  019%=      5-min Rain = 0
KBR1 182112Z 20007KT 39/11 A2988 RMK A01 T03880108  RH  019%=      5-min Rain = 0
KBR1 182113Z 20007G12KT 39/11 A2988 RMK A01 T03880106  RH  018%=      5-min Rain = 0
KBR1 182114Z 18006KT 39/11 A2988 RMK A01 T03880105  RH  018%=      5-min Rain = 0
KBR1 182115Z 18008KT 39/10 A2988 RMK A01 T03870103  RH  018%=      5-min Rain = 0
KBR1 182116Z 21008KT 39/10 A2988 RMK A01 T03880103  RH  018%=      5-min Rain = 0
KBR1 182117Z 22009G16KT 39/11 A2988 RMK A01 T03900105  RH  018%=      5-min Rain = 0
KBR1 182118Z 21012KT 39/11 A2988 RMK A01 T03930110  RH  019%=      5-min Rain = 0
KBR1 182119Z 22013KT 39/11 A2988 RMK A01 T03920107  RH  018%=      5-min Rain = 0
KBR1 182120Z 20012KT 39/11 A2987 RMK A01 T03920108  RH  018%=      5-min Rain = 0
KBR1 182121Z 23010KT 39/11 A2988 RMK A01 T03900108  RH  019%=      5-min Rain = 0
KBR1 182122Z 23010KT 39/11 A2988 RMK A01 T03900110  RH  019%=      5-min Rain = 0
KBR1 182123Z 25009KT 39/11 A2988 RMK A01 T03920110  RH  019%=      5-min Rain = 0
KBR1 182124Z 25005KT 39/11 A2988 RMK A01 T03890105  RH  018%=      5-min Rain = 0
KBR1 182125Z 25004KT 39/11 A2988 RMK A01 T03850108  RH  019%=      5-min Rain = 0
KBR1 182126Z 24006KT 39/11 A2988 RMK A01 T03860108  RH  019%=      5-min Rain = 0
KBR1 182127Z 25006KT 39/11 A2988 RMK A01 T03880110  RH  019%=      5-min Rain = 0
KBR1 182128Z 22008KT 39/11 A2987 RMK A01 T03930108  RH  018%=      5-min Rain = 0
KBR1 182129Z 23011KT 39/11 A2987 RMK A01 T03930106  RH  018%=      5-min Rain = 0
KBR1 182130Z 22008KT 39/10 A2987 RMK A01 T03920103  RH  018%=      5-min Rain = 0
KBR1 182131Z 20008KT 39/11 A2987 RMK A01 T03910106  RH  018%=      5-min Rain = 0
KBR1 182132Z 21005KT 39/11 A2987 RMK A01 T03900107  RH  018%=      5-min Rain = 0
KBR1 182133Z 21006KT 39/11 A2987 RMK A01 T03930110  RH  018%=      5-min Rain = 0
KBR1 182134Z 16007KT 39/11 A2987 RMK A01 T03920108  RH  018%=      5-min Rain = 0
KBR1 182135Z 15008KT 39/11 A2987 RMK A01 T03880110  RH  019%=      5-min Rain = 0
KBR1 182136Z 16009KT 39/11 A2987 RMK A01 T03870112  RH  019%=      5-min Rain = 0
KBR1 182137Z 17009KT 39/11 A2987 RMK A01 T03880111  RH  019%=      5-min Rain = 0
KBR1 182138Z 16006KT 39/11 A2987 RMK A01 T03860109  RH  019%=      5-min Rain = 0
KBR1 182139Z 16006KT 38/11 A2987 RMK A01 T03840111  RH  019%=      5-min Rain = 0
KBR1 182140Z 18007KT 39/11 A2987 RMK A01 T03860111  RH  019%=      5-min Rain = 0
KBR1 182141Z 19006KT 38/11 A2987 RMK A01 T03840111  RH  019%=      5-min Rain = 0
KBR1 182142Z 19006KT 38/11 A2987 RMK A01 T03830111  RH  020%=      5-min Rain = 0
KBR1 182143Z 19009G16KT 38/11 A2987 RMK A01 T03840112  RH  020%=      5-min Rain = 0
KBR1 182144Z 18013KT 39/11 A2986 RMK A01 T03880108  RH  019%=      5-min Rain = 0
KBR1 182145Z 16014KT 39/11 A2987 RMK A01 T03900109  RH  019%=      5-min Rain = 0
KBR1 182146Z 16013KT 39/11 A2987 RMK A01 T03920106  RH  018%=      5-min Rain = 0
KBR1 182147Z 16010KT 39/11 A2987 RMK A01 T03920105  RH  018%=      5-min Rain = 0
KBR1 182148Z 17010KT 39/10 A2987 RMK A01 T03910104  RH  018%=      5-min Rain = 0
KBR1 182149Z 18006KT 39/10 A2987 RMK A01 T03910104  RH  018%=      5-min Rain = 0
KBR1 182150Z 14009KT 39/11 A2986 RMK A01 T03910106  RH  018%=      5-min Rain = 0
KBR1 182151Z 17014G21KT 40/11 A2985 RMK A01 T03950108  RH  018%=      5-min Rain = 0
KBR1 182152Z 25012G22KT 40/11 A2986 RMK A01 T04030111  RH  018%=      5-min Rain = 0
KBR1 182153Z 25010KT 40/11 A2986 RMK A01 T03980112  RH  018%=      5-min Rain = 0
KBR1 182154Z 24009KT 39/11 A2986 RMK A01 T03930112  RH  019%=      5-min Rain = 0
KBR1 182155Z 22010KT 39/11 A2986 RMK A01 T03940113  RH  019%=      5-min Rain = 0
KBR1 182156Z 19009KT 40/11 A2986 RMK A01 T03950107  RH  018%=      5-min Rain = 0
KBR1 182157Z 19010KT 40/10 A2986 RMK A01 T03950104  RH  017%=      5-min Rain = 0
KBR1 182158Z 18014G22KT 39/11 A2986 RMK A01 T03920105  RH  018%=      5-min Rain = 0
KBR1 182159Z 17016KT 39/11 A2986 RMK A01 T03920107  RH  018%=      5-min Rain = 0
KBR1 182200Z 18015G20KT 40/11 A2986 RMK A01 T03950108  RH  018%=      5-min Rain = 0
KBR1 182201Z 18018KT 40/11 A2986 RMK A01 T03960109  RH  018%=      5-min Rain = 0
KBR1 182202Z 17014KT 40/11 A2986 RMK A01 T03970108  RH  018%=      5-min Rain = 0
KBR1 182203Z 17011KT 39/11 A2986 RMK A01 T03930107  RH  018%=      5-min Rain = 0
KBR1 182204Z 20012KT 39/11 A2986 RMK A01 T03920106  RH  018%=      5-min Rain = 0
KBR1 182205Z 20013KT 39/11 A2986 RMK A01 T03910106  RH  018%=      5-min Rain = 0
KBR1 182206Z 19013KT 39/11 A2986 RMK A01 T03930107  RH  018%=      5-min Rain = 0
KBR1 182207Z 18017KT 40/11 A2986 RMK A01 T03960107  RH  018%=      5-min Rain = 0
KBR1 182208Z 18015KT 40/11 A2986 RMK A01 T03980107  RH  018%=      5-min Rain = 0
KBR1 182209Z 18016KT 40/11 A2986 RMK A01 T03970106  RH  018%=      5-min Rain = 0
KBR1 182210Z 17012KT 39/10 A2986 RMK A01 T03930103  RH  018%=      5-min Rain = 0
KBR1 182211Z 19009G14KT 39/11 A2986 RMK A01 T03910105  RH  018%=      5-min Rain = 0
KBR1 182212Z 18012KT 39/11 A2986 RMK A01 T03930106  RH  018%=      5-min Rain = 0
KBR1 182213Z 17014KT 40/11 A2986 RMK A01 T03950107  RH  018%=      5-min Rain = 0
KBR1 182214Z 18014KT 40/11 A2986 RMK A01 T03980106  RH  018%=      5-min Rain = 0
KBR1 182215Z 18014KT 40/11 A2986 RMK A01 T03980105  RH  017%=      5-min Rain = 0
KBR1 182216Z 17011KT 39/10 A2986 RMK A01 T03940104  RH  018%=      5-min Rain = 0
KBR1 182217Z 17008KT 39/10 A2986 RMK A01 T03900102  RH  018%=      5-min Rain = 0
KBR1 182218Z 17010KT 39/10 A2986 RMK A01 T03870102  RH  018%=      5-min Rain = 0
KBR1 182219Z 17012KT 39/10 A2986 RMK A01 T03870103  RH  018%=      5-min Rain = 0
KBR1 182220Z 16011KT 39/10 A2986 RMK A01 T03870102  RH  018%=      5-min Rain = 0
KBR1 182221Z 15010KT 39/11 A2986 RMK A01 T03870105  RH  018%=      5-min Rain = 0
KBR1 182222Z 16011KT 39/10 A2986 RMK A01 T03900102  RH  018%=      5-min Rain = 0
KBR1 182223Z 19011KT 39/10 A2986 RMK A01 T03900100  RH  018%=      5-min Rain = 0
KBR1 182224Z 21010KT 39/09 A2986 RMK A01 T03920094  RH  017%=      5-min Rain = 0
KBR1 182225Z 19012G17KT 39/09 A2986 RMK A01 T03940091  RH  016%=      5-min Rain = 0
KBR1 182226Z 18016KT 39/09 A2986 RMK A01 T03930090  RH  016%=      5-min Rain = 0
KBR1 182227Z 19012KT 39/09 A2985 RMK A01 T03920091  RH  016%=      5-min Rain = 0
KBR1 182228Z 22009KT 39/09 A2985 RMK A01 T03920091  RH  016%=      5-min Rain = 0
KBR1 182229Z 21008G13KT 39/09 A2985 RMK A01 T03900092  RH  017%=      5-min Rain = 0
KBR1 182230Z 21013KT 39/09 A2985 RMK A01 T03930092  RH  016%=      5-min Rain = 0
KBR1 182231Z 19010KT 39/09 A2985 RMK A01 T03940090  RH  016%=      5-min Rain = 0
KBR1 182232Z 19006KT 39/09 A2985 RMK A01 T03940092  RH  016%=      5-min Rain = 0
KBR1 182233Z 17009KT 40/09 A2985 RMK A01 T03970093  RH  016%=      5-min Rain = 0
KBR1 182234Z 19014KT 40/09 A2985 RMK A01 T03990091  RH  016%=      5-min Rain = 0
KBR1 182235Z 19013KT 40/08 A2985 RMK A01 T03980084  RH  015%=      5-min Rain = 0
KBR1 182236Z 19013KT 40/09 A2985 RMK A01 T03960085  RH  015%=      5-min Rain = 0
KBR1 182237Z 20012KT 40/08 A2985 RMK A01 T03950084  RH  015%=      5-min Rain = 0
KBR1 182238Z 23013KT 40/09 A2985 RMK A01 T03960085  RH  015%=      5-min Rain = 0
KBR1 182239Z 21014KT 40/08 A2985 RMK A01 T03970083  RH  015%=      5-min Rain = 0
KBR1 182240Z 21011KT 40/08 A2985 RMK A01 T03960080  RH  015%=      5-min Rain = 0
KBR1 182241Z 19007KT 40/08 A2985 RMK A01 T03950079  RH  015%=      5-min Rain = 0
KBR1 182242Z 18008KT 39/08 A2985 RMK A01 T03940080  RH  015%=      5-min Rain = 0
KBR1 182243Z 18010KT 40/08 A2985 RMK A01 T03960080  RH  015%=      5-min Rain = 0
KBR1 182244Z 18010KT 40/08 A2985 RMK A01 T03960079  RH  015%=      5-min Rain = 0
KBR1 182245Z 18009KT 39/08 A2985 RMK A01 T03940077  RH  015%=      5-min Rain = 0
KBR1 182246Z 16010KT 39/07 A2985 RMK A01 T03930074  RH  015%=      5-min Rain = 0
KBR1 182247Z 15009KT 39/07 A2985 RMK A01 T03900072  RH  015%=      5-min Rain = 0
KBR1 182248Z 17008KT 39/08 A2985 RMK A01 T03880076  RH  015%=      5-min Rain = 0
KBR1 182249Z 20009KT 39/08 A2985 RMK A01 T03890081  RH  015%=      5-min Rain = 0
KBR1 182250Z 20006KT 39/08 A2985 RMK A01 T03910083  RH  016%=      5-min Rain = 0
KBR1 182251Z 19008KT 39/09 A2985 RMK A01 T03910086  RH  016%=      5-min Rain = 0
KBR1 182252Z 19009KT 39/09 A2985 RMK A01 T03910090  RH  016%=      5-min Rain = 0
KBR1 182253Z 18011KT 39/09 A2985 RMK A01 T03930094  RH  017%=      5-min Rain = 0
KBR1 182254Z 18009KT 39/10 A2985 RMK A01 T03930095  RH  017%=      5-min Rain = 0
KBR1 182255Z 17011KT 39/10 A2985 RMK A01 T03930095  RH  017%=      5-min Rain = 0
KBR1 182256Z 16008KT 39/09 A2985 RMK A01 T03910093  RH  017%=      5-min Rain = 0
KBR1 182257Z 15008KT 39/09 A2985 RMK A01 T03880093  RH  017%=      5-min Rain = 0
KBR1 182258Z 18008KT 39/10 A2984 RMK A01 T03880095  RH  017%=      5-min Rain = 0
KBR1 182259Z 18014KT 39/10 A2984 RMK A01 T03920098  RH  017%=      5-min Rain = 0
KBR1 182300Z 18014KT 39/10 A2984 RMK A01 T03940101  RH  017%=      5-min Rain = 0
KBR1 182301Z 18013KT 40/10 A2985 RMK A01 T03960102  RH  017%=      5-min Rain = 0
KBR1 182302Z 19011KT 39/10 A2985 RMK A01 T03940098  RH  017%=      5-min Rain = 0
KBR1 182303Z 18006KT 39/10 A2985 RMK A01 T03910097  RH  017%=      5-min Rain = 0
KBR1 182304Z 14006KT 39/10 A2984 RMK A01 T03890099  RH  018%=      5-min Rain = 0
KBR1 182305Z 13009KT 39/10 A2984 RMK A01 T03920100  RH  017%=      5-min Rain = 0
KBR1 182306Z 13007KT 39/10 A2984 RMK A01 T03920098  RH  017%=      5-min Rain = 0
KBR1 182307Z 15005KT 39/10 A2984 RMK A01 T03880097  RH  017%=      5-min Rain = 0
KBR1 182308Z 16005KT 39/10 A2984 RMK A01 T03860098  RH  018%=      5-min Rain = 0
KBR1 182309Z 14008KT 39/10 A2984 RMK A01 T03870099  RH  018%=      5-min Rain = 0
KBR1 182310Z 14007KT 39/10 A2984 RMK A01 T03880097  RH  017%=      5-min Rain = 0
KBR1 182311Z 14006KT 39/10 A2984 RMK A01 T03880095  RH  017%=      5-min Rain = 0
KBR1 182312Z 14006KT 39/10 A2984 RMK A01 T03860096  RH  017%=      5-min Rain = 0
KBR1 182313Z 15009KT 39/10 A2984 RMK A01 T03880098  RH  018%=      5-min Rain = 0
KBR1 182314Z 16013G20KT 39/10 A2984 RMK A01 T03900098  RH  017%=      5-min Rain = 0
KBR1 182315Z 18014KT 39/10 A2984 RMK A01 T03900097  RH  017%=      5-min Rain = 0
KBR1 182316Z 19010KT 39/10 A2984 RMK A01 T03890096  RH  017%=      5-min Rain = 0
KBR1 182317Z 21011KT 39/10 A2984 RMK A01 T03870096  RH  017%=      5-min Rain = 0
KBR1 182318Z 22012KT 39/09 A2984 RMK A01 T03850093  RH  017%=      5-min Rain = 0
KBR1 182319Z 23011KT 38/09 A2984 RMK A01 T03820091  RH  017%=      5-min Rain = 0
KBR1 182320Z 22003G11KT 38/09 A2984 RMK A01 T03820092  RH  017%=      5-min Rain = 0
KBR1 182321Z 31001KT 38/09 A2984 RMK A01 T03830093  RH  017%=      5-min Rain = 0
KBR1 182322Z 01001KT 39/10 A2984 RMK A01 T03850095  RH  017%=      5-min Rain = 0
KBR1 182323Z 30003KT 39/09 A2984 RMK A01 T03880094  RH  017%=      5-min Rain = 0
KBR1 182324Z 28002KT 39/10 A2984 RMK A01 T03900095  RH  017%=      5-min Rain = 0
KBR1 182325Z 25001KT 39/09 A2984 RMK A01 T03910093  RH  017%=      5-min Rain = 0
KBR1 182326Z 20001KT 39/09 A2984 RMK A01 T03920094  RH  017%=      5-min Rain = 0
KBR1 182327Z 25002KT 39/10 A2984 RMK A01 T03940097  RH  017%=      5-min Rain = 0
KBR1 182328Z 21005G10KT 40/10 A2984 RMK A01 T03950096  RH  017%=      5-min Rain = 0
KBR1 182329Z 19008KT 40/09 A2984 RMK A01 T03950091  RH  016%=      5-min Rain = 0
KBR1 182330Z 20005KT 39/09 A2984 RMK A01 T03920088  RH  016%=      5-min Rain = 0
KBR1 182331Z 18006KT 39/09 A2984 RMK A01 T03890090  RH  016%=      5-min Rain = 0
KBR1 182332Z 16011G20KT 39/09 A2983 RMK A01 T03880086  RH  016%=      5-min Rain = 0
KBR1 182333Z 17010G17KT 39/08 A2984 RMK A01 T03870082  RH  016%=      5-min Rain = 0
KBR1 182334Z 18012KT 39/08 A2984 RMK A01 T03880084  RH  016%=      5-min Rain = 0
KBR1 182335Z 17013KT 39/09 A2984 RMK A01 T03890086  RH  016%=      5-min Rain = 0
KBR1 182336Z 16008G13KT 39/08 A2984 RMK A01 T03880084  RH  016%=      5-min Rain = 0
KBR1 182337Z 16008KT 39/08 A2984 RMK A01 T03850084  RH  016%=      5-min Rain = 0
KBR1 182338Z 18011KT 39/09 A2984 RMK A01 T03850085  RH  016%=      5-min Rain = 0
KBR1 182339Z 18010KT 39/09 A2984 RMK A01 T03890086  RH  016%=      5-min Rain = 0
KBR1 182340Z 17009KT 39/09 A2984 RMK A01 T03940087  RH  016%=      5-min Rain = 0
KBR1 182341Z 17010KT 40/08 A2984 RMK A01 T03960083  RH  015%=      5-min Rain = 0
KBR1 182342Z 16015KT 40/08 A2984 RMK A01 T03960082  RH  015%=      5-min Rain = 0
KBR1 182343Z 16011KT 40/08 A2984 RMK A01 T03960081  RH  015%=      5-min Rain = 0
KBR1 182344Z 17012KT 40/08 A2983 RMK A01 T03960081  RH  015%=      5-min Rain = 0
KBR1 182345Z 15012KT 40/08 A2984 RMK A01 T03950081  RH  015%=      5-min Rain = 0
KBR1 182346Z 14010KT 39/08 A2984 RMK A01 T03940082  RH  015%=      5-min Rain = 0
KBR1 182347Z 14007KT 39/08 A2984 RMK A01 T03900079  RH  015%=      5-min Rain = 0
KBR1 182348Z 16003KT 39/08 A2983 RMK A01 T03880080  RH  016%=      5-min Rain = 0
KBR1 182349Z 19007G13KT 39/08 A2983 RMK A01 T03880083  RH  016%=      5-min Rain = 0
KBR1 182350Z 22010KT 39/08 A2983 RMK A01 T03870084  RH  016%=      5-min Rain = 0
KBR1 182351Z 20007KT 39/08 A2984 RMK A01 T03860084  RH  016%=      5-min Rain = 0
KBR1 182352Z 19011KT 39/08 A2984 RMK A01 T03850084  RH  016%=      5-min Rain = 0
KBR1 182353Z 20009KT 38/09 A2984 RMK A01 T03840085  RH  016%=      5-min Rain = 0
KBR1 182354Z 20008KT 38/08 A2984 RMK A01 T03830082  RH  016%=      5-min Rain = 0
KBR1 182355Z 20009KT 38/08 A2984 RMK A01 T03840084  RH  016%=      5-min Rain = 0
KBR1 182356Z 20009KT 38/08 A2984 RMK A01 T03840084  RH  016%=      5-min Rain = 0
KBR1 182357Z 20009KT 39/08 A2984 RMK A01 T03850082  RH  016%=      5-min Rain = 0
KBR1 182358Z 18010KT 39/09 A2984 RMK A01 T03850085  RH  016%=      5-min Rain = 0
KBR1 182359Z 17011KT 39/08 A2984 RMK A01 T03870082  RH  016%=      5-min Rain = 0
KBR1 190000Z 17010KT 39/08 A2984 RMK A01 T03870081  RH  016%=      5-min Rain = 0
KBR1 190001Z 15012KT 39/08 A2984 RMK A01 T03870082  RH  016%=      5-min Rain = 0
KBR1 190002Z 15011KT 39/08 A2984 RMK A01 T03870083  RH  016%=      5-min Rain = 0
KBR1 190003Z 15009KT 39/08 A2984 RMK A01 T03860081  RH  016%=      5-min Rain = 0
KBR1 190004Z 18010KT 39/08 A2984 RMK A01 T03870081  RH  016%=      5-min Rain = 0
KBR1 190005Z 19011KT 39/09 A2984 RMK A01 T03890085  RH  016%=      5-min Rain = 0
KBR1 190006Z 18013KT 39/09 A2984 RMK A01 T03900086  RH  016%=      5-min Rain = 0
KBR1 190007Z 17011KT 39/08 A2984 RMK A01 T03860084  RH  016%=      5-min Rain = 0
KBR1 190008Z 18011KT 38/08 A2984 RMK A01 T03830084  RH  016%=      5-min Rain = 0
KBR1 190009Z 18011KT 38/09 A2984 RMK A01 T03820085  RH  017%=      5-min Rain = 0
KBR1 190010Z 18009KT 38/09 A2984 RMK A01 T03820086  RH  017%=      5-min Rain = 0
KBR1 190011Z 18007KT 38/08 A2984 RMK A01 T03820083  RH  016%=      5-min Rain = 0
KBR1 190012Z 18010KT 38/08 A2984 RMK A01 T03820084  RH  016%=      5-min Rain = 0
KBR1 190013Z 18008KT 38/08 A2984 RMK A01 T03810082  RH  016%=      5-min Rain = 0
KBR1 190014Z 18007KT 38/08 A2984 RMK A01 T03810084  RH  016%=      5-min Rain = 0
KBR1 190015Z 19008KT 38/09 A2984 RMK A01 T03810085  RH  017%=      5-min Rain = 0
KBR1 190016Z 19008KT 38/09 A2984 RMK A01 T03820085  RH  017%=      5-min Rain = 0
KBR1 190017Z 19010KT 38/09 A2984 RMK A01 T03830085  RH  016%=      5-min Rain = 0
KBR1 190018Z 19010KT 39/09 A2984 RMK A01 T03850086  RH  016%=      5-min Rain = 0
KBR1 190019Z 19011KT 39/09 A2984 RMK A01 T03860085  RH  016%=      5-min Rain = 0
KBR1 190020Z 20012KT 39/08 A2984 RMK A01 T03860084  RH  016%=      5-min Rain = 0
KBR1 190021Z 20009KT 39/08 A2984 RMK A01 T03860083  RH  016%=      5-min Rain = 0
KBR1 190022Z 18008KT 39/08 A2984 RMK A01 T03850084  RH  016%=      5-min Rain = 0
KBR1 190023Z 19006KT 39/08 A2984 RMK A01 T03850082  RH  016%=      5-min Rain = 0
KBR1 190024Z 18007KT 39/08 A2984 RMK A01 T03850084  RH  016%=      5-min Rain = 0
KBR1 190025Z 17008KT 39/09 A2984 RMK A01 T03860085  RH  016%=      5-min Rain = 0
KBR1 190026Z 17007KT 39/08 A2984 RMK A01 T03870083  RH  016%=      5-min Rain = 0
KBR1 190027Z 18006KT 39/08 A2984 RMK A01 T03860081  RH  016%=      5-min Rain = 0
KBR1 190028Z 20007KT 39/08 A2984 RMK A01 T03850081  RH  016%=      5-min Rain = 0
KBR1 190029Z 20007KT 39/08 A2984 RMK A01 T03860082  RH  016%=      5-min Rain = 0
KBR1 190030Z 22008KT 39/08 A2984 RMK A01 T03860083  RH  016%=      5-min Rain = 0
KBR1 190031Z 23007KT 39/08 A2984 RMK A01 T03870084  RH  016%=      5-min Rain = 0
KBR1 190032Z 21011KT 39/08 A2984 RMK A01 T03880084  RH  016%=      5-min Rain = 0
KBR1 190033Z 19009KT 39/08 A2984 RMK A01 T03880078  RH  015%=      5-min Rain = 0
KBR1 190034Z 20008KT 39/08 A2984 RMK A01 T03870080  RH  016%=      5-min Rain = 0
KBR1 190035Z 19007KT 39/08 A2984 RMK A01 T03870083  RH  016%=      5-min Rain = 0
KBR1 190036Z 18011KT 39/08 A2984 RMK A01 T03880080  RH  015%=      5-min Rain = 0
KBR1 190037Z 18008KT 39/08 A2984 RMK A01 T03860079  RH  016%=      5-min Rain = 0
KBR1 190038Z 18007KT 38/08 A2984 RMK A01 T03830079  RH  016%=      5-min Rain = 0
KBR1 190039Z 20006KT 38/08 A2984 RMK A01 T03830082  RH  016%=      5-min Rain = 0
KBR1 190040Z 19007KT 38/08 A2984 RMK A01 T03830083  RH  016%=      5-min Rain = 0
KBR1 190041Z 19007KT 38/08 A2984 RMK A01 T03830081  RH  016%=      5-min Rain = 0
KBR1 190042Z 19007KT 38/08 A2984 RMK A01 T03830082  RH  016%=      5-min Rain = 0
KBR1 190043Z 20007KT 38/09 A2984 RMK A01 T03840086  RH  016%=      5-min Rain = 0
KBR1 190044Z 19009KT 39/08 A2984 RMK A01 T03850081  RH  016%=      5-min Rain = 0
KBR1 190045Z 20007KT 39/08 A2984 RMK A01 T03850083  RH  016%=      5-min Rain = 0
KBR1 190046Z 19010KT 39/09 A2984 RMK A01 T03860085  RH  016%=      5-min Rain = 0
KBR1 190047Z 18009KT 39/08 A2984 RMK A01 T03870080  RH  016%=      5-min Rain = 0
KBR1 190048Z 19006KT 39/08 A2984 RMK A01 T03860079  RH  016%=      5-min Rain = 0
KBR1 190049Z 19007KT 39/08 A2984 RMK A01 T03850082  RH  016%=      5-min Rain = 0
KBR1 190050Z 20009KT 39/08 A2984 RMK A01 T03850082  RH  016%=      5-min Rain = 0
KBR1 190051Z 20007KT 38/08 A2984 RMK A01 T03840081  RH  016%=      5-min Rain = 0
KBR1 190052Z 19008KT 38/08 A2984 RMK A01 T03840082  RH  016%=      5-min Rain = 0
KBR1 190053Z 18008KT 38/08 A2984 RMK A01 T03840082  RH  016%=      5-min Rain = 0
KBR1 190054Z 20011KT 38/08 A2984 RMK A01 T03830083  RH  016%=      5-min Rain = 0
KBR1 190055Z 20009KT 38/08 A2984 RMK A01 T03840084  RH  016%=      5-min Rain = 0
KBR1 190056Z 20008KT 38/08 A2984 RMK A01 T03830082  RH  016%=      5-min Rain = 0
KBR1 190057Z 19008KT 38/08 A2984 RMK A01 T03820082  RH  016%=      5-min Rain = 0
KBR1 190058Z 18010KT 38/08 A2984 RMK A01 T03830082  RH  016%=      5-min Rain = 0
KBR1 190059Z 18010KT 38/08 A2984 RMK A01 T03830079  RH  016%=      5-min Rain = 0
KBR1 190100Z 17010KT 38/08 A2984 RMK A01 T03840079  RH  016%=      5-min Rain = 0
KBR1 190101Z 18010KT 38/08 A2984 RMK A01 T03840075  RH  015%=      5-min Rain = 0
KBR1 190102Z 18011KT 38/08 A2984 RMK A01 T03840077  RH  016%=      5-min Rain = 0
KBR1 190103Z 17010KT 38/08 A2984 RMK A01 T03830075  RH  015%=      5-min Rain = 0
KBR1 190104Z 17008KT 38/08 A2984 RMK A01 T03820076  RH  016%=      5-min Rain = 0
KBR1 190105Z 17008KT 38/08 A2984 RMK A01 T03830076  RH  016%=      5-min Rain = 0
KBR1 190106Z 18009KT 38/08 A2984 RMK A01 T03830077  RH  016%=      5-min Rain = 0
KBR1 190107Z 18011KT 38/08 A2984 RMK A01 T03820076  RH  016%=      5-min Rain = 0
KBR1 190108Z 18010KT 38/08 A2984 RMK A01 T03820076  RH  016%=      5-min Rain = 0
KBR1 190109Z 17009KT 38/08 A2984 RMK A01 T03810077  RH  016%=      5-min Rain = 0
KBR1 190110Z 18010KT 38/08 A2984 RMK A01 T03810078  RH  016%=      5-min Rain = 0
KBR1 190111Z 18010KT 38/08 A2984 RMK A01 T03810078  RH  016%=      5-min Rain = 0
KBR1 190112Z 18010KT 38/08 A2984 RMK A01 T03800077  RH  016%=      5-min Rain = 0
KBR1 190113Z 17009KT 38/08 A2984 RMK A01 T03790077  RH  016%=      5-min Rain = 0
KBR1 190114Z 17008KT 38/08 A2984 RMK A01 T03790077  RH  016%=      5-min Rain = 0
KBR1 190115Z 18008KT 38/08 A2984 RMK A01 T03790079  RH  016%=      5-min Rain = 0
KBR1 190116Z 18007KT 38/08 A2984 RMK A01 T03790079  RH  016%=      5-min Rain = 0
KBR1 190117Z 18006KT 38/08 A2984 RMK A01 T03780080  RH  016%=      5-min Rain = 0
KBR1 190118Z 18007KT 38/08 A2984 RMK A01 T03780082  RH  017%=      5-min Rain = 0
KBR1 190119Z 19008KT 38/08 A2984 RMK A01 T03780077  RH  016%=      5-min Rain = 0
KBR1 190120Z 18009KT 38/08 A2984 RMK A01 T03770077  RH  016%=      5-min Rain = 0
KBR1 190121Z 18010KT 38/08 A2984 RMK A01 T03770075  RH  016%=      5-min Rain = 0
KBR1 190122Z 17008KT 38/07 A2984 RMK A01 T03770072  RH  016%=      5-min Rain = 0
KBR1 190123Z 17008KT 38/08 A2984 RMK A01 T03760075  RH  016%=      5-min Rain = 0
KBR1 190124Z 17008KT 38/07 A2984 RMK A01 T03760074  RH  016%=      5-min Rain = 0
KBR1 190125Z 17008KT 38/08 A2984 RMK A01 T03750075  RH  016%=      5-min Rain = 0
KBR1 190126Z 17008KT 37/07 A2984 RMK A01 T03740072  RH  016%=      5-min Rain = 0
KBR1 190127Z 18009KT 37/07 A2984 RMK A01 T03740068  RH  015%=      5-min Rain = 0
KBR1 190128Z 18009KT 37/07 A2984 RMK A01 T03730067  RH  015%=      5-min Rain = 0
KBR1 190129Z 18007KT 37/07 A2984 RMK A01 T03720066  RH  015%=      5-min Rain = 0
KBR1 190130Z 18008KT 37/07 A2984 RMK A01 T03720067  RH  016%=      5-min Rain = 0
KBR1 190131Z 18007KT 37/07 A2984 RMK A01 T03700067  RH  016%=      5-min Rain = 0
KBR1 190132Z 18008KT 37/07 A2984 RMK A01 T03690066  RH  016%=      5-min Rain = 0
KBR1 190133Z 19008KT 37/07 A2984 RMK A01 T03690065  RH  016%=      5-min Rain = 0
KBR1 190134Z 18009KT 37/06 A2984 RMK A01 T03680063  RH  015%=      5-min Rain = 0
KBR1 190135Z 18008KT 37/06 A2984 RMK A01 T03680062  RH  015%=      5-min Rain = 0
KBR1 190136Z 18008KT 37/06 A2984 RMK A01 T03670062  RH  015%=      5-min Rain = 0
KBR1 190137Z 18007KT 37/06 A2984 RMK A01 T03660063  RH  016%=      5-min Rain = 0
KBR1 190138Z 18008KT 36/06 A2984 RMK A01 T03640064  RH  016%=      5-min Rain = 0
KBR1 190139Z 18007KT 36/07 A2984 RMK A01 T03630065  RH  016%=      5-min Rain = 0
KBR1 190140Z 18007KT 36/07 A2984 RMK A01 T03610065  RH  016%=      5-min Rain = 0
KBR1 190141Z 18008KT 36/07 A2984 RMK A01 T03610065  RH  016%=      5-min Rain = 0
KBR1 190142Z 18008KT 36/07 A2984 RMK A01 T03600066  RH  016%=      5-min Rain = 0
KBR1 190143Z 18007KT 36/07 A2984 RMK A01 T03590067  RH  017%=      5-min Rain = 0
KBR1 190144Z 18008KT 36/07 A2984 RMK A01 T03580067  RH  017%=      5-min Rain = 0
KBR1 190145Z 18007KT 36/07 A2984 RMK A01 T03570068  RH  017%=      5-min Rain = 0
KBR1 190146Z 18007KT 36/07 A2984 RMK A01 T03570069  RH  017%=      5-min Rain = 0
KBR1 190147Z 18007KT 36/07 A2984 RMK A01 T03550069  RH  017%=      5-min Rain = 0
KBR1 190148Z 18007KT 35/07 A2984 RMK A01 T03530070  RH  018%=      5-min Rain = 0
KBR1 190149Z 18007KT 35/07 A2984 RMK A01 T03510070  RH  018%=      5-min Rain = 0
KBR1 190150Z 18006KT 35/07 A2984 RMK A01 T03500071  RH  018%=      5-min Rain = 0
KBR1 190151Z 17006KT 35/07 A2984 RMK A01 T03490071  RH  018%=      5-min Rain = 0
KBR1 190152Z 17006KT 35/07 A2984 RMK A01 T03470070  RH  018%=      5-min Rain = 0
KBR1 190153Z 17006KT 35/07 A2984 RMK A01 T03460070  RH  018%=      5-min Rain = 0
KBR1 190154Z 17006KT 35/07 A2984 RMK A01 T03450071  RH  018%=      5-min Rain = 0
KBR1 190155Z 16006KT 34/07 A2984 RMK A01 T03430071  RH  019%=      5-min Rain = 0
KBR1 190156Z 16007KT 34/07 A2984 RMK A01 T03420071  RH  019%=      5-min Rain = 0
KBR1 190157Z 16007KT 34/07 A2984 RMK A01 T03400071  RH  019%=      5-min Rain = 0
KBR1 190158Z 16007KT 34/07 A2984 RMK A01 T03380071  RH  019%=      5-min Rain = 0
KBR1 190159Z 17007KT 34/07 A2984 RMK A01 T03360071  RH  019%=      5-min Rain = 0
KBR1 190200Z 17007KT 33/07 A2984 RMK A01 T03340071  RH  020%=      5-min Rain = 0
KBR1 190201Z 17007KT 33/07 A2984 RMK A01 T03320071  RH  020%=      5-min Rain = 0
KBR1 190202Z 17007KT 33/07 A2984 RMK A01 T03310072  RH  020%=      5-min Rain = 0
KBR1 190203Z 17008KT 33/07 A2985 RMK A01 T03300071  RH  020%=      5-min Rain = 0
KBR1 190204Z 17008KT 33/07 A2985 RMK A01 T03280071  RH  020%=      5-min Rain = 0
KBR1 190205Z 17008KT 33/07 A2985 RMK A01 T03270071  RH  020%=      5-min Rain = 0
KBR1 190206Z 17008KT 33/07 A2985 RMK A01 T03260071  RH  021%=      5-min Rain = 0
KBR1 190207Z 17008KT 33/07 A2985 RMK A01 T03250071  RH  021%=      5-min Rain = 0
KBR1 190208Z 17008KT 33/07 A2985 RMK A01 T03250071  RH  021%=      5-min Rain = 0
KBR1 190209Z 17008KT 33/07 A2985 RMK A01 T03250071  RH  021%=      5-min Rain = 0
KBR1 190210Z 17008KT 33/07 A2985 RMK A01 T03250070  RH  021%=      5-min Rain = 0
KBR1 190211Z 17008KT 33/07 A2985 RMK A01 T03250070  RH  021%=      5-min Rain = 0
KBR1 190212Z 17007KT 33/07 A2985 RMK A01 T03250070  RH  020%=      5-min Rain = 0
KBR1 190213Z 17007KT 33/07 A2985 RMK A01 T03250069  RH  020%=      5-min Rain = 0
KBR1 190214Z 17007KT 33/07 A2985 RMK A01 T03250069  RH  020%=      5-min Rain = 0
KBR1 190215Z 17007KT 33/07 A2985 RMK A01 T03250069  RH  020%=      5-min Rain = 0
KBR1 190216Z 17007KT 33/07 A2985 RMK A01 T03250069  RH  020%=      5-min Rain = 0
KBR1 190217Z 17007KT 33/07 A2985 RMK A01 T03250068  RH  020%=      5-min Rain = 0
KBR1 190218Z 17007KT 33/07 A2985 RMK A01 T03250068  RH  020%=      5-min Rain = 0
KBR1 190219Z 17006KT 33/07 A2985 RMK A01 T03260068  RH  020%=      5-min Rain = 0
KBR1 190220Z 17006KT 33/07 A2985 RMK A01 T03260067  RH  020%=      5-min Rain = 0
KBR1 190221Z 17006KT 33/07 A2985 RMK A01 T03270067  RH  020%=      5-min Rain = 0
KBR1 190222Z 16006KT 33/07 A2985 RMK A01 T03280066  RH  020%=      5-min Rain = 0
KBR1 190223Z 16006KT 33/07 A2985 RMK A01 T03290066  RH  020%=      5-min Rain = 0
KBR1 190224Z 16006KT 33/07 A2985 RMK A01 T03290067  RH  020%=      5-min Rain = 0
KBR1 190225Z 16006KT 33/07 A2985 RMK A01 T03280067  RH  020%=      5-min Rain = 0
KBR1 190226Z 16006KT 33/07 A2985 RMK A01 T03280067  RH  020%=      5-min Rain = 0
KBR1 190227Z 16005KT 33/07 A2985 RMK A01 T03270065  RH  020%=      5-min Rain = 0
KBR1 190228Z 16005KT 33/07 A2985 RMK A01 T03270066  RH  020%=      5-min Rain = 0
KBR1 190229Z 16005KT 33/07 A2985 RMK A01 T03260067  RH  020%=      5-min Rain = 0
KBR1 190230Z 16005KT 33/07 A2985 RMK A01 T03250068  RH  020%=      5-min Rain = 0
KBR1 190231Z 16005KT 33/07 A2985 RMK A01 T03250065  RH  020%=      5-min Rain = 0
KBR1 190232Z 16005KT 33/07 A2985 RMK A01 T03280065  RH  019%=      5-min Rain = 0
KBR1 190233Z 16005KT 33/07 A2985 RMK A01 T03320065  RH  019%=      5-min Rain = 0
KBR1 190234Z 15006KT 33/07 A2985 RMK A01 T03330065  RH  019%=      5-min Rain = 0
KBR1 190235Z 16006KT 33/07 A2985 RMK A01 T03330065  RH  019%=      5-min Rain = 0
KBR1 190236Z 16006KT 33/06 A2985 RMK A01 T03330064  RH  019%=      5-min Rain = 0
KBR1 190237Z 15006KT 33/07 A2985 RMK A01 T03320066  RH  019%=      5-min Rain = 0
KBR1 190238Z 15006KT 33/07 A2985 RMK A01 T03290067  RH  020%=      5-min Rain = 0
KBR1 190239Z 15006KT 33/07 A2985 RMK A01 T03260067  RH  020%=      5-min Rain = 0
KBR1 190240Z 15007KT 32/07 A2985 RMK A01 T03230068  RH  020%=      5-min Rain = 0
KBR1 190241Z 15007KT 32/07 A2985 RMK A01 T03200067  RH  021%=      5-min Rain = 0
KBR1 190242Z 15007KT 32/07 A2985 RMK A01 T03190067  RH  021%=      5-min Rain = 0
KBR1 190243Z 14008KT 32/07 A2986 RMK A01 T03180068  RH  021%=      5-min Rain = 0
KBR1 190244Z 14009KT 32/07 A2986 RMK A01 T03160068  RH  021%=      5-min Rain = 0
KBR1 190245Z 14009KT 31/07 A2986 RMK A01 T03140068  RH  022%=      5-min Rain = 0
KBR1 190246Z 13009KT 31/07 A2986 RMK A01 T03120069  RH  022%=      5-min Rain = 0
KBR1 190247Z 13009KT 31/07 A2986 RMK A01 T03110068  RH  022%=      5-min Rain = 0
KBR1 190248Z 12008KT 31/07 A2986 RMK A01 T03120069  RH  022%=      5-min Rain = 0
KBR1 190249Z 13008KT 31/07 A2986 RMK A01 T03120070  RH  022%=      5-min Rain = 0
KBR1 190250Z 12008KT 31/07 A2986 RMK A01 T03100070  RH  022%=      5-min Rain = 0
KBR1 190251Z 13008KT 31/07 A2986 RMK A01 T03090070  RH  022%=      5-min Rain = 0
KBR1 190252Z 13009KT 31/07 A2986 RMK A01 T03090071  RH  023%=      5-min Rain = 0
KBR1 190253Z 13009KT 31/07 A2986 RMK A01 T03090071  RH  023%=      5-min Rain = 0
KBR1 190254Z 13009KT 31/07 A2986 RMK A01 T03080072  RH  023%=      5-min Rain = 0
KBR1 190255Z 13008KT 31/07 A2986 RMK A01 T03080073  RH  023%=      5-min Rain = 0
KBR1 190256Z 13007KT 31/07 A2986 RMK A01 T03060073  RH  023%=      5-min Rain = 0
KBR1 190257Z 13008KT 30/07 A2986 RMK A01 T03040073  RH  024%=      5-min Rain = 0
KBR1 190258Z 13009KT 30/07 A2986 RMK A01 T03020073  RH  024%=      5-min Rain = 0
KBR1 190259Z 13009KT 30/07 A2986 RMK A01 T03010073  RH  024%=      5-min Rain = 0
KBR1 190300Z 13009KT 30/07 A2986 RMK A01 T03010073  RH  024%=      5-min Rain = 0
KBR1 190301Z 13009KT 30/07 A2986 RMK A01 T03010074  RH  024%=      5-min Rain = 0
KBR1 190302Z 13009KT 30/08 A2986 RMK A01 T03020075  RH  024%=      5-min Rain = 0
KBR1 190303Z 13009KT 30/08 A2986 RMK A01 T03020075  RH  024%=      5-min Rain = 0
KBR1 190304Z 13009KT 30/08 A2986 RMK A01 T03020075  RH  024%=      5-min Rain = 0
KBR1 190305Z 13008KT 30/08 A2986 RMK A01 T03010076  RH  024%=      5-min Rain = 0
KBR1 190306Z 13008KT 30/08 A2987 RMK A01 T03020076  RH  024%=      5-min Rain = 0
KBR1 190307Z 13009KT 30/08 A2987 RMK A01 T03020078  RH  025%=      5-min Rain = 0
KBR1 190308Z 13009KT 30/08 A2987 RMK A01 T03020080  RH  025%=      5-min Rain = 0
KBR1 190309Z 13009KT 30/08 A2987 RMK A01 T03030081  RH  025%=      5-min Rain = 0
KBR1 190310Z 14009KT 30/08 A2987 RMK A01 T03040083  RH  025%=      5-min Rain = 0
KBR1 190311Z 14010KT 30/08 A2987 RMK A01 T03040083  RH  025%=      5-min Rain = 0
KBR1 190312Z 14009KT 31/09 A2987 RMK A01 T03050085  RH  025%=      5-min Rain = 0
KBR1 190313Z 14009KT 31/09 A2987 RMK A01 T03060085  RH  025%=      5-min Rain = 0
KBR1 190314Z 14008KT 31/09 A2987 RMK A01 T03050085  RH  025%=      5-min Rain = 0
KBR1 190315Z 14009KT 30/09 A2987 RMK A01 T03040086  RH  026%=      5-min Rain = 0
KBR1 190316Z 14008KT 30/09 A2987 RMK A01 T03040087  RH  026%=      5-min Rain = 0
KBR1 190317Z 14008KT 30/09 A2987 RMK A01 T03040088  RH  026%=      5-min Rain = 0
KBR1 190318Z 14007KT 30/09 A2987 RMK A01 T03030088  RH  026%=      5-min Rain = 0
KBR1 190319Z 14008KT 30/09 A2987 RMK A01 T03020089  RH  027%=      5-min Rain = 0
KBR1 190320Z 14008KT 30/09 A2987 RMK A01 T03010089  RH  027%=      5-min Rain = 0
KBR1 190321Z 14009KT 30/09 A2987 RMK A01 T03000090  RH  027%=      5-min Rain = 0
KBR1 190322Z 14009KT 30/09 A2987 RMK A01 T02990091  RH  027%=      5-min Rain = 0
KBR1 190323Z 14009KT 30/09 A2987 RMK A01 T02990092  RH  028%=      5-min Rain = 0
KBR1 190324Z 14009KT 30/09 A2987 RMK A01 T02990092  RH  028%=      5-min Rain = 0
KBR1 190325Z 14011KT 30/10 A2987 RMK A01 T03000096  RH  028%=      5-min Rain = 0
KBR1 190326Z 14011KT 30/10 A2987 RMK A01 T03030099  RH  028%=      5-min Rain = 0
KBR1 190327Z 15010KT 31/10 A2987 RMK A01 T03060100  RH  028%=      5-min Rain = 0
KBR1 190328Z 14010KT 31/10 A2987 RMK A01 T03070100  RH  028%=      5-min Rain = 0
KBR1 190329Z 15010KT 31/10 A2987 RMK A01 T03070101  RH  028%=      5-min Rain = 0
KBR1 190330Z 14011KT 31/10 A2988 RMK A01 T03080102  RH  028%=      5-min Rain = 0
KBR1 190331Z 15011KT 31/10 A2988 RMK A01 T03090104  RH  028%=      5-min Rain = 0
KBR1 190332Z 15011KT 31/11 A2988 RMK A01 T03090105  RH  028%=      5-min Rain = 0
KBR1 190333Z 14011KT 31/11 A2988 RMK A01 T03090106  RH  029%=      5-min Rain = 0
KBR1 190334Z 15012KT 31/11 A2988 RMK A01 T03100107  RH  029%=      5-min Rain = 0
KBR1 190335Z 15011KT 31/11 A2988 RMK A01 T03100108  RH  029%=      5-min Rain = 0
KBR1 190336Z 15010KT 31/11 A2988 RMK A01 T03100109  RH  029%=      5-min Rain = 0
KBR1 190337Z 15011KT 31/11 A2988 RMK A01 T03090110  RH  029%=      5-min Rain = 0
KBR1 190338Z 15012KT 31/11 A2988 RMK A01 T03090111  RH  030%=      5-min Rain = 0
KBR1 190339Z 15012KT 31/11 A2988 RMK A01 T03100112  RH  030%=      5-min Rain = 0
KBR1 190340Z 15011KT 31/11 A2988 RMK A01 T03100112  RH  030%=      5-min Rain = 0
KBR1 190341Z 15011KT 31/11 A2988 RMK A01 T03100113  RH  030%=      5-min Rain = 0
KBR1 190342Z 16012KT 31/12 A2988 RMK A01 T03100115  RH  030%=      5-min Rain = 0
KBR1 190343Z 16011KT 31/12 A2988 RMK A01 T03110115  RH  030%=      5-min Rain = 0
KBR1 190344Z 16013KT 31/12 A2988 RMK A01 T03110116  RH  030%=      5-min Rain = 0
KBR1 190345Z 16011KT 31/12 A2988 RMK A01 T03120117  RH  030%=      5-min Rain = 0
KBR1 190346Z 16012KT 31/12 A2988 RMK A01 T03110117  RH  030%=      5-min Rain = 0
KBR1 190347Z 16013KT 31/12 A2988 RMK A01 T03100118  RH  031%=      5-min Rain = 0
KBR1 190348Z 16012KT 31/12 A2988 RMK A01 T03100119  RH  031%=      5-min Rain = 0
KBR1 190349Z 16012KT 31/12 A2988 RMK A01 T03100119  RH  031%=      5-min Rain = 0
KBR1 190350Z 16014KT 31/12 A2988 RMK A01 T03100120  RH  031%=      5-min Rain = 0
KBR1 190351Z 16011KT 31/12 A2988 RMK A01 T03100121  RH  031%=      5-min Rain = 0
KBR1 190352Z 16012KT 31/12 A2989 RMK A01 T03100121  RH  031%=      5-min Rain = 0
KBR1 190353Z 16013KT 31/12 A2988 RMK A01 T03090122  RH  032%=      5-min Rain = 0
KBR1 190354Z 16013KT 31/12 A2989 RMK A01 T03100123  RH  032%=      5-min Rain = 0
KBR1 190355Z 16013KT 31/12 A2989 RMK A01 T03100123  RH  032%=      5-min Rain = 0
KBR1 190356Z 16012KT 31/12 A2989 RMK A01 T03110123  RH  032%=      5-min Rain = 0
KBR1 190357Z 16012KT 31/12 A2989 RMK A01 T03100123  RH  032%=      5-min Rain = 0
KBR1 190358Z 16012KT 31/12 A2989 RMK A01 T03090123  RH  032%=      5-min Rain = 0
KBR1 190359Z 16011KT 31/12 A2989 RMK A01 T03080124  RH  032%=      5-min Rain = 0
KBR1 190400Z 16010KT 31/12 A2989 RMK A01 T03070124  RH  033%=      5-min Rain = 0
KBR1 190401Z 16011KT 31/12 A2989 RMK A01 T03060124  RH  033%=      5-min Rain = 0
KBR1 190402Z 16012KT 31/12 A2989 RMK A01 T03060124  RH  033%=      5-min Rain = 0
KBR1 190403Z 16011KT 31/13 A2989 RMK A01 T03060125  RH  033%=      5-min Rain = 0
KBR1 190404Z 16011KT 31/13 A2989 RMK A01 T03060125  RH  033%=      5-min Rain = 0
KBR1 190405Z 16012KT 31/13 A2989 RMK A01 T03050126  RH  033%=      5-min Rain = 0
KBR1 190406Z 16012KT 31/13 A2989 RMK A01 T03060127  RH  034%=      5-min Rain = 0
KBR1 190407Z 16012KT 31/13 A2989 RMK A01 T03060128  RH  034%=      5-min Rain = 0
KBR1 190408Z 16011KT 31/13 A2989 RMK A01 T03060128  RH  034%=      5-min Rain = 0
KBR1 190409Z 16012KT 31/13 A2989 RMK A01 T03050128  RH  034%=      5-min Rain = 0
KBR1 190410Z 16011KT 31/13 A2989 RMK A01 T03050129  RH  034%=      5-min Rain = 0
KBR1 190411Z 16012KT 30/13 A2989 RMK A01 T03040129  RH  034%=      5-min Rain = 0
KBR1 190412Z 16013KT 30/13 A2989 RMK A01 T03030130  RH  035%=      5-min Rain = 0
KBR1 190413Z 16011KT 30/13 A2989 RMK A01 T03030131  RH  035%=      5-min Rain = 0
KBR1 190414Z 16012KT 30/13 A2989 RMK A01 T03030131  RH  035%=      5-min Rain = 0
KBR1 190415Z 16011KT 30/13 A2989 RMK A01 T03020131  RH  035%=      5-min Rain = 0
KBR1 190416Z 16012KT 30/13 A2989 RMK A01 T03020131  RH  035%=      5-min Rain = 0
KBR1 190417Z 16011KT 30/13 A2989 RMK A01 T03020132  RH  035%=      5-min Rain = 0
KBR1 190418Z 16011KT 30/13 A2989 RMK A01 T03010132  RH  035%=      5-min Rain = 0
KBR1 190419Z 16012KT 30/13 A2989 RMK A01 T03010132  RH  036%=      5-min Rain = 0
KBR1 190420Z 16013KT 30/13 A2989 RMK A01 T03010133  RH  036%=      5-min Rain = 0
KBR1 190421Z 17012KT 30/13 A2989 RMK A01 T03010133  RH  036%=      5-min Rain = 0
KBR1 190422Z 16012KT 30/13 A2989 RMK A01 T03010133  RH  036%=      5-min Rain = 0
KBR1 190423Z 16012KT 30/13 A2989 RMK A01 T03010134  RH  036%=      5-min Rain = 0
KBR1 190424Z 16011KT 30/13 A2989 RMK A01 T03010134  RH  036%=      5-min Rain = 0
KBR1 190425Z 16010KT 30/13 A2989 RMK A01 T03000134  RH  036%=      5-min Rain = 0
KBR1 190426Z 17011KT 30/13 A299 RMK A01 T02990134  RH  036%=      5-min Rain = 0
KBR1 190427Z 17013KT 30/13 A299 RMK A01 T02980134  RH  037%=      5-min Rain = 0
KBR1 190428Z 17011KT 30/14 A299 RMK A01 T02990135  RH  036%=      5-min Rain = 0
KBR1 190429Z 17011KT 30/14 A299 RMK A01 T02990135  RH  036%=      5-min Rain = 0
KBR1 190430Z 17010KT 30/13 A299 RMK A01 T02980134  RH  037%=      5-min Rain = 0
KBR1 190431Z 17012KT 30/14 A299 RMK A01 T02980135  RH  037%=      5-min Rain = 0
KBR1 190432Z 17012KT 30/14 A299 RMK A01 T02980135  RH  037%=      5-min Rain = 0
KBR1 190433Z 17011KT 30/14 A299 RMK A01 T02980135  RH  037%=      5-min Rain = 0
KBR1 190434Z 17012KT 30/14 A299 RMK A01 T02990135  RH  037%=      5-min Rain = 0
KBR1 190435Z 17011KT 30/14 A299 RMK A01 T02990135  RH  037%=      5-min Rain = 0
KBR1 190436Z 17012KT 30/14 A299 RMK A01 T02980135  RH  037%=      5-min Rain = 0
KBR1 190437Z 17012KT 30/14 A299 RMK A01 T02980135  RH  037%=      5-min Rain = 0
KBR1 190438Z 17011KT 30/14 A299 RMK A01 T02980135  RH  037%=      5-min Rain = 0
KBR1 190439Z 17013KT 30/14 A299 RMK A01 T02980135  RH  037%=      5-min Rain = 0
KBR1 190440Z 17012KT 30/14 A299 RMK A01 T02980135  RH  037%=      5-min Rain = 0
KBR1 190441Z 17011KT 30/14 A299 RMK A01 T02980135  RH  037%=      5-min Rain = 0
KBR1 190442Z 17013KT 30/14 A299 RMK A01 T02980135  RH  037%=      5-min Rain = 0
KBR1 190443Z 18012KT 30/14 A299 RMK A01 T02980135  RH  037%=      5-min Rain = 0
KBR1 190444Z 17011KT 30/14 A299 RMK A01 T02980135  RH  037%=      5-min Rain = 0
KBR1 190445Z 17011KT 30/14 A299 RMK A01 T02980135  RH  037%=      5-min Rain = 0
KBR1 190446Z 18012KT 30/14 A299 RMK A01 T02970135  RH  037%=      5-min Rain = 0
KBR1 190447Z 17012KT 30/13 A299 RMK A01 T02970134  RH  037%=      5-min Rain = 0
KBR1 190448Z 18013KT 30/14 A299 RMK A01 T02970135  RH  037%=      5-min Rain = 0
KBR1 190449Z 17011KT 30/14 A299 RMK A01 T02980135  RH  037%=      5-min Rain = 0
KBR1 190450Z 18012KT 30/14 A299 RMK A01 T02980135  RH  037%=      5-min Rain = 0
KBR1 190451Z 17013KT 30/14 A299 RMK A01 T02980135  RH  037%=      5-min Rain = 0
KBR1 190452Z 18014KT 30/13 A299 RMK A01 T02980134  RH  037%=      5-min Rain = 0
KBR1 190453Z 18012KT 30/13 A299 RMK A01 T02990134  RH  036%=      5-min Rain = 0
KBR1 190454Z 18013KT 30/13 A299 RMK A01 T02990134  RH  037%=      5-min Rain = 0
KBR1 190455Z 18014KT 30/13 A299 RMK A01 T02990134  RH  037%=      5-min Rain = 0
KBR1 190456Z 18013KT 30/13 A299 RMK A01 T02990134  RH  037%=      5-min Rain = 0
KBR1 190457Z 18014KT 30/13 A299 RMK A01 T02980134  RH  037%=      5-min Rain = 0
KBR1 190458Z 18014KT 30/13 A299 RMK A01 T02980134  RH  037%=      5-min Rain = 0
KBR1 190459Z 18012KT 30/13 A299 RMK A01 T02980134  RH  037%=      5-min Rain = 0

Page generated in 0.1426 seconds.